FI441 / TF-ISK 7700 Squawk Report (14th of January, 2019)

Aircraft B752 Reg No. TF-ISK Age 28 years old
Model 757 Jet engines 2 First flight 24-06-91
Registered 05-03-13 Rollout N/A Delivered 10-07-91
Construction No. 24606 Line No. 0379 Series 223
ADSHEX 4CC271 Airline name Icelandair Owner Wilmington Trust Company
Airfield based Keflavik~Southern Peninsula~TF First tracked 2017-07-13 07:55:00

Flight history for TF-ISK

Route Flight No Date Playback
Zurich (ZRH) - Keflavik International Airport (KEF) FI569 2019-10-17 15:41:00
Keflavik International Airport (KEF) - Zurich (ZRH) FI568 2019-10-17 11:14:00
Orlando Intl (MCO) - Keflavik International Airport (KEF) FI688 2019-10-17 05:53:00
Keflavik International Airport (KEF) - Orlando Intl (MCO) FI689 2019-10-16 01:08:00
Brussels Airport (BRU) - Keflavik International Airport (KEF) FI555 2019-10-15 17:28:00
Keflavik International Airport (KEF) - Brussels Airport (BRU) FI554 2019-10-15 12:37:00
Minneapolis-St.Paul Intl (MSP) - Keflavik International Airport (KEF) FI656 2019-10-15 08:12:00
Keflavik International Airport (KEF) - Minneapolis-St.Paul Intl (MSP) FI657 2019-10-15 00:48:00
Schiphol (AMS) - Keflavik International Airport (KEF) FI507 2019-10-14 17:24:00
Keflavik International Airport (KEF) - Schiphol (AMS) FI506 2019-10-14 12:47:00
Gardermoen (OSL) - Keflavik International Airport (KEF) FI325 2019-10-13 22:20:00
Keflavik International Airport (KEF) - Gardermoen (OSL) FI324 2019-10-13 18:41:00
???? N/A 2019-10-13 16:28:00
Hamburg (HAM) - Keflavik International Airport (KEF) FI511 2019-10-13 15:21:00
Keflavik International Airport (KEF) - Hamburg (HAM) FI510 2019-10-13 10:52:00
Chicago Ohare Intl (ORD) - Keflavik International Airport (KEF) FI852 2019-10-13 06:15:00
Keflavik International Airport (KEF) - Chicago Ohare Intl (ORD) FI853 2019-10-13 00:35:00
Brussels Airport (BRU) - Keflavik International Airport (KEF) FI555 2019-10-12 16:54:00
Keflavik International Airport (KEF) - Brussels Airport (BRU) FI554 2019-10-12 12:13:00
Orlando Intl (MCO) - Keflavik International Airport (KEF) FI688 2019-10-12 06:18:00
Time Lat Lon Altitude Heading Speed Vertical Rate
2019-01-14 18:48:56 GMT 63.984924 -22.417179 2,475 270 122 -768
2019-01-14 18:48:50 GMT 63.984936 -22.410791 2,525 270 124 -768
2019-01-14 18:48:41 GMT 63.984936 -22.397497 2,650 270 128 -768
2019-01-14 18:48:31 GMT 63.984886 -22.383764 2,750 270 134 -832
2019-01-14 18:48:21 GMT 63.984886 -22.369373 2,900 270 137 -704
2019-01-14 18:48:10 GMT 63.984879 -22.353479 3,050 270 138 -768
2019-01-14 18:48:00 GMT 63.984833 -22.338902 3,175 270 138 -704
2019-01-14 18:47:50 GMT 63.984833 -22.324324 3,300 270 140 -832
2019-01-14 18:47:37 GMT 63.984840 -22.305103 3,500 270 140 -960
2019-01-14 18:47:29 GMT 63.984840 -22.293346 3,575 271 141 -320
2019-01-14 18:47:19 GMT 63.984699 -22.278406 3,650 273 142 -384
2019-01-14 18:46:57 GMT 63.983490 -22.244898 3,775 283 150 -256
2019-01-14 18:46:49 GMT 63.981861 -22.232702 3,850 298 157 -512
2019-01-14 18:46:38 GMT 63.978088 -22.218311 4,050 303 162 -576
2019-01-14 18:46:28 GMT 63.972458 -22.198206 4,050 303 162 -576
2019-01-14 18:46:18 GMT 63.969818 -22.188051 4,125 303 162 -576
2019-01-14 18:46:07 GMT 63.965515 -22.173685 4,225 303 163 -576
2019-01-14 18:45:58 GMT 63.961487 -22.159212 4,325 303 163 -576
2019-01-14 18:45:46 GMT 63.956772 -22.141678 4,425 303 162 -256
2019-01-14 18:45:37 GMT 63.953136 -22.128551 4,500 303 164 -768
2019-01-14 18:45:27 GMT 63.949043 -22.113939 4,650 303 165 -832
2019-01-14 18:45:17 GMT 63.944759 -22.099218 4,925 303 165 -768
2019-01-14 18:45:06 GMT 63.940571 -22.084606 4,950 303 165 -768
2019-01-14 18:44:54 GMT 63.935543 -22.066919 5,075 304 167 -640
2019-01-14 18:44:44 GMT 63.930515 -22.049011 5,175 304 171 -576
2019-01-14 18:44:36 GMT 63.927429 -22.038153 5,250 303 175 -576
2019-01-14 18:44:25 GMT 63.922508 -22.022863 5,400 309 178 -768
2019-01-14 18:44:15 GMT 63.917667 -22.007153 5,525 315 183 -768
2019-01-14 18:44:05 GMT 63.910496 -21.993860 5,650 321 188 -576
2019-01-14 18:43:55 GMT 63.903465 -21.981665 5,725 325 195 -384
2019-01-14 18:43:44 GMT 63.894928 -21.968960 5,775 330 205 -384
2019-01-14 18:43:35 GMT 63.887081 -21.959583 5,825 333 213 -128
2019-01-14 18:43:26 GMT 63.879547 -21.949944 5,900 332 218 -1088
2019-01-14 18:43:22 GMT 63.875610 -21.945614 6,000 332 220 -1280
2019-01-14 18:43:14 GMT 63.868423 -21.936527 6,175 331 223 -1600
2019-01-14 18:43:04 GMT 63.859589 -21.924908 6,425 330 223 -1344
2019-01-14 18:42:53 GMT 63.850525 -21.912655 6,675 327 222 -1280
2019-01-14 18:42:43 GMT 63.842251 -21.896851 6,900 317 220 -1152
2019-01-14 18:42:33 GMT 63.834850 -21.879932 7,100 314 223 -1024
2019-01-14 18:42:23 GMT 63.827446 -21.862682 7,250 314 230 -960
2019-01-14 18:42:13 GMT 63.819950 -21.844995 7,425 314 239 -960
2019-01-14 18:42:02 GMT 63.811890 -21.826559 7,600 314 246 -1152
2019-01-14 18:41:52 GMT 63.803741 -21.805750 7,850 314 253 -1664
2019-01-14 18:41:41 GMT 63.794487 -21.784571 8,200 314 256 -1728
2019-01-14 18:41:32 GMT 63.787170 -21.766979 8,475 314 261 -1664
2019-01-14 18:41:23 GMT 63.779499 -21.749084 8,750 314 263 -1792
2019-01-14 18:41:11 GMT 63.769817 -21.724915 9,100 314 266 -1856
2019-01-14 18:41:01 GMT 63.761341 -21.704809 9,450 314 268 -2176
2019-01-14 18:40:52 GMT 63.753204 -21.686378 9,850 314 268 -2176
2019-01-14 18:40:42 GMT 63.744644 -21.666096 10,200 314 268 -2112
2019-01-14 18:40:31 GMT 63.735226 -21.643505 10,575 314 273 -1664
2019-01-14 18:40:20 GMT 63.726429 -21.622852 10,900 314 276 -1408
2019-01-14 18:40:10 GMT 63.717491 -21.601538 11,100 314 283 -704
2019-01-14 18:40:00 GMT 63.708366 -21.579784 11,225 314 292 -768
2019-01-14 18:39:50 GMT 63.698456 -21.555387 11,350 314 300 -1152
2019-01-14 18:39:40 GMT 63.688660 -21.532570 11,675 314 302 -1984
2019-01-14 18:39:35 GMT 63.681519 -21.514189 11,925 314 304 -1856
2019-01-14 18:39:30 GMT 63.678864 -21.509645 12,000 314 304 -1920
2019-01-14 18:39:19 GMT 63.668751 -21.484533 12,325 315 306 -1728
2019-01-14 18:39:09 GMT 63.658463 -21.461573 12,675 315 308 -1984
2019-01-14 18:38:58 GMT 63.647873 -21.436544 13,050 315 309 -1984
2019-01-14 18:38:47 GMT 63.636932 -21.413727 13,400 316 311 -1472
2019-01-14 18:38:38 GMT 63.627644 -21.393127 13,600 316 313 -1088
2019-01-14 18:38:28 GMT 63.616333 -21.368092 13,750 316 318 -640
2019-01-14 18:38:18 GMT 63.605896 -21.344851 13,875 316 323 -640
2019-01-14 18:38:07 GMT 63.595047 -21.320660 13,975 314 328 -640
2019-01-14 18:37:57 GMT 63.584538 -21.291834 14,075 309 334 -448
2019-01-14 18:37:47 GMT 63.574528 -21.264368 14,175 309 342 -576
2019-01-14 18:37:36 GMT 63.564426 -21.236462 14,425 309 344 -2368
2019-01-14 18:37:26 GMT 63.554260 -21.205727 14,850 309 344 -2176
2019-01-14 18:37:16 GMT 63.543823 -21.177626 15,225 309 347 -2048
2019-01-14 18:37:10 GMT 63.537689 -21.160725 15,450 309 348 -2112
2019-01-14 18:37:05 GMT 63.533707 -21.149315 15,600 309 349 -2176
2019-01-14 18:37:00 GMT 63.527092 -21.129456 15,850 309 350 -2304
2019-01-14 18:36:55 GMT 63.523090 -21.118031 16,000 309 350 -2368
2019-01-14 18:36:49 GMT 63.516571 -21.101110 16,275 309 351 -2304
2019-01-14 18:36:45 GMT 63.513035 -21.089794 16,400 309 351 -2240
2019-01-14 18:36:38 GMT 63.505966 -21.069771 16,675 309 352 -2176
2019-01-14 18:36:34 GMT 63.502232 -21.061121 16,800 309 354 -2048
2019-01-14 18:36:29 GMT 63.495621 -21.041037 17,050 309 355 -2048
2019-01-14 18:36:24 GMT 63.491959 -21.029629 17,175 309 356 -1984
2019-01-14 18:36:18 GMT 63.485046 -21.012197 17,400 309 359 -1920
2019-01-14 18:36:14 GMT 63.481613 -21.000578 17,500 309 360 -2048
2019-01-14 18:36:04 GMT 63.470627 -20.971634 17,875 309 362 -2176
2019-01-14 18:35:54 GMT 63.460098 -20.942055 18,325 309 361 -2752
2019-01-14 18:35:42 GMT 63.448196 -20.907194 18,825 309 362 -2240
2019-01-14 18:35:33 GMT 63.438038 -20.881165 19,175 310 364 -2048
2019-01-14 18:35:22 GMT 63.427097 -20.851610 19,575 310 366 -2368
2019-01-14 18:35:12 GMT 63.416382 -20.819197 20,000 309 367 -2560
2019-01-14 18:35:02 GMT 63.405304 -20.789936 20,425 309 369 -2432
2019-01-14 18:34:51 GMT 63.394180 -20.760145 20,925 309 369 -3136
2019-01-14 18:34:41 GMT 63.383423 -20.730461 21,425 309 370 -2624
2019-01-14 18:34:31 GMT 63.372444 -20.697582 21,875 309 374 -2304
2019-01-14 18:34:21 GMT 63.361042 -20.667589 22,275 309 376 -2368
2019-01-14 18:34:10 GMT 63.349594 -20.634331 22,700 310 379 -2432
2019-01-14 18:34:03 GMT 63.340881 -20.613098 23,025 309 381 -2304
2019-01-14 18:34:00 GMT 63.338600 -20.606947 23,100 309 383 -2304
2019-01-14 18:33:53 GMT 63.329544 -20.579294 23,425 309 384 -2752
2019-01-14 18:33:50 GMT 63.326660 -20.573273 23,550 309 384 -2816
2019-01-14 18:33:43 GMT 63.317825 -20.548658 23,925 310 386 -2624
2019-01-14 18:33:40 GMT 63.315399 -20.542639 24,025 310 386 -2432
2019-01-14 18:33:32 GMT 63.306061 -20.517517 24,325 310 392 -2112
2019-01-14 18:33:29 GMT 63.303734 -20.508509 24,400 310 392 -2112
2019-01-14 18:33:19 GMT 63.291958 -20.476978 24,800 310 396 -2432
2019-01-14 18:33:08 GMT 63.279510 -20.442177 25,300 310 398 -2816
2019-01-14 18:32:58 GMT 63.267838 -20.410484 25,750 310 400 -2816
2019-01-14 18:32:48 GMT 63.256073 -20.378477 26,225 310 402 -2496
2019-01-14 18:32:38 GMT 63.243530 -20.346680 26,650 310 407 -2176
2019-01-14 18:32:27 GMT 63.231022 -20.310755 27,075 310 411 -2688
2019-01-14 18:32:17 GMT 63.218918 -20.278126 27,550 310 413 -2880
2019-01-14 18:32:07 GMT 63.206627 -20.245167 28,025 310 416 -2560
2019-01-14 18:31:57 GMT 63.193916 -20.212097 28,425 310 421 -1984
2019-01-14 18:31:46 GMT 63.180679 -20.175373 28,750 310 427 -1920
2019-01-14 18:31:36 GMT 63.167953 -20.141500 29,150 310 429 -2624
2019-01-14 18:31:25 GMT 63.154861 -20.107422 29,700 310 427 -4096
2019-01-14 18:31:15 GMT 63.141731 -20.070436 30,400 310 422 -3456
2019-01-14 18:31:05 GMT 63.128979 -20.037161 30,975 310 419 -3648
2019-01-14 18:30:54 GMT 63.116089 -20.001017 31,575 310 417 -2880
2019-01-14 18:30:44 GMT 63.104095 -19.967957 32,000 310 416 -2432
2019-01-14 18:30:34 GMT 63.091187 -19.935404 32,425 310 418 -2304
2019-01-14 18:30:23 GMT 63.078236 -19.899303 32,825 310 420 -2176
2019-01-14 18:30:13 GMT 63.065918 -19.869385 33,175 310 421 -2368
2019-01-14 18:30:03 GMT 63.053143 -19.833385 33,600 310 422 -2112
2019-01-14 18:29:52 GMT 63.039783 -19.800322 33,900 310 423 -960
2019-01-14 18:29:43 GMT 63.027401 -19.767258 33,975 310 425 -64
2019-01-14 18:29:32 GMT 63.014557 -19.730429 34,000 310 425 -64
2019-01-14 18:29:22 GMT 63.001419 -19.697266 34,000 310 425 -64
2019-01-14 18:29:11 GMT 62.988281 -19.664103 34,000 310 424 -64
2019-01-14 18:29:01 GMT 62.975540 -19.627708 34,000 310 424 -64
2019-01-14 18:28:51 GMT 62.962601 -19.594749 34,000 310 423 -64
2019-01-14 18:28:40 GMT 62.949425 -19.561790 34,000 311 423 0
2019-01-14 18:28:30 GMT 62.936855 -19.529043 34,000 310 422 -64
2019-01-14 18:28:20 GMT 62.923645 -19.492901 34,000 310 421 -64
2019-01-14 18:28:09 GMT 62.910557 -19.456999 34,000 310 421 0
2019-01-14 18:27:59 GMT 62.897800 -19.424673 34,000 311 420 0
2019-01-14 18:27:49 GMT 62.885323 -19.392031 34,000 310 420 -64
2019-01-14 18:27:39 GMT 62.872520 -19.359495 34,000 311 419 -128
2019-01-14 18:27:29 GMT 62.859764 -19.326958 34,025 311 418 -64
2019-01-14 18:27:18 GMT 62.846695 -19.291586 34,000 311 418 0
2019-01-14 18:27:08 GMT 62.833603 -19.259134 34,000 311 417 0
2019-01-14 18:26:58 GMT 62.821335 -19.226889 34,000 311 417 -64
2019-01-14 18:26:47 GMT 62.808327 -19.191954 34,000 311 415 -64
2019-01-14 18:26:37 GMT 62.795292 -19.159840 34,000 311 415 -64
2019-01-14 18:26:27 GMT 62.783096 -19.127831 34,000 311 414 64
2019-01-14 18:26:16 GMT 62.769562 -19.092916 34,000 311 414 -128
2019-01-14 18:26:06 GMT 62.757065 -19.061279 34,000 311 413 0
2019-01-14 18:25:55 GMT 62.744202 -19.029947 34,000 311 412 0
2019-01-14 18:25:45 GMT 62.731705 -18.998310 34,000 311 412 -64
2019-01-14 18:25:35 GMT 62.718433 -18.963671 34,000 311 412 -64
2019-01-14 18:25:25 GMT 62.706142 -18.932190 34,000 311 411 -64
2019-01-14 18:25:14 GMT 62.693436 -18.900921 34,000 311 411 -64
2019-01-14 18:25:04 GMT 62.680435 -18.866577 34,000 311 410 0
2019-01-14 18:24:54 GMT 62.667572 -18.835245 34,000 311 409 0
2019-01-14 18:24:43 GMT 62.654938 -18.804117 34,000 311 408 0
2019-01-14 18:24:33 GMT 62.642136 -18.770353 34,000 311 406 0
2019-01-14 18:24:23 GMT 62.629986 -18.739508 34,000 311 405 -64
2019-01-14 18:24:12 GMT 62.617043 -18.708555 34,025 311 404 -64
2019-01-14 18:24:02 GMT 62.604893 -18.678131 34,000 311 401 0
2019-01-14 18:23:52 GMT 62.592270 -18.644613 34,000 311 399 0
2019-01-14 18:23:42 GMT 62.579865 -18.614401 34,000 311 397 -64
2019-01-14 18:23:31 GMT 62.567280 -18.581684 34,025 311 395 0
2019-01-14 18:23:20 GMT 62.554337 -18.551577 34,000 311 394 0
2019-01-14 18:23:11 GMT 62.542744 -18.521997 34,000 311 394 0
2019-01-14 18:23:00 GMT 62.529648 -18.489075 34,000 312 395 0
2019-01-14 18:22:50 GMT 62.518341 -18.462118 34,000 312 395 -64
2019-01-14 18:22:40 GMT 62.505753 -18.429361 34,000 312 396 0
2019-01-14 18:22:29 GMT 62.493073 -18.399555 34,000 312 396 -128
2019-01-14 18:22:19 GMT 62.480507 -18.366817 34,000 312 398 0
2019-01-14 18:22:09 GMT 62.468590 -18.337027 34,000 312 398 0
2019-01-14 18:21:58 GMT 62.455353 -18.303934 34,000 312 398 0
2019-01-14 18:21:48 GMT 62.443684 -18.277130 34,000 312 398 0
2019-01-14 18:21:38 GMT 62.431046 -18.244120 34,000 312 399 -64
2019-01-14 18:21:27 GMT 62.418137 -18.214111 34,000 312 400 -64
2019-01-14 18:21:17 GMT 62.405277 -18.181316 34,000 312 401 -64
2019-01-14 18:21:07 GMT 62.393032 -18.151104 34,000 312 401 128
2019-01-14 18:20:57 GMT 62.380604 -18.121103 34,000 312 403 -128
2019-01-14 18:20:47 GMT 62.368176 -18.090891 34,000 312 403 0
2019-01-14 18:20:36 GMT 62.354782 -18.057861 34,000 312 404 0
2019-01-14 18:20:26 GMT 62.342102 -18.027752 34,000 312 406 64
2019-01-14 18:20:15 GMT 62.328419 -17.994337 34,000 312 408 -64
2019-01-14 18:20:05 GMT 62.316502 -17.963915 34,000 312 409 -64
2019-01-14 18:19:55 GMT 62.303375 -17.933491 34,000 312 410 64
2019-01-14 18:19:43 GMT 62.288940 -17.897045 34,000 312 411 -64
We lost coverage of the aircraft here for a total of 40 minutes
2019-01-14 17:39:15 GMT 59.391716 -10.880632 34,000 311 390 0
2019-01-14 17:39:12 GMT 59.388336 -10.872528 34,000 311 390 0
2019-01-14 17:39:02 GMT 59.377193 -10.848241 34,000 311 390 0
2019-01-14 17:38:51 GMT 59.363228 -10.816229 34,000 311 390 0
2019-01-14 17:38:42 GMT 59.352951 -10.792145 34,000 311 390 0
2019-01-14 17:38:32 GMT 59.341187 -10.765228 34,000 311 390 0
2019-01-14 17:38:22 GMT 59.329605 -10.738403 34,000 311 390 0
2019-01-14 17:38:07 GMT 59.311832 -10.698411 34,000 311 390 0
2019-01-14 17:37:56 GMT 59.299622 -10.669098 34,000 311 390 0
2019-01-14 17:37:46 GMT 59.287216 -10.642273 34,000 311 389 0
2019-01-14 17:37:39 GMT 59.279293 -10.623590 34,000 311 389 0
2019-01-14 17:37:31 GMT 59.269703 -10.602375 34,000 311 389 0
2019-01-14 17:37:20 GMT 59.257370 -10.573059 34,000 311 389 0
2019-01-14 17:37:10 GMT 59.245514 -10.546692 34,000 311 389 0
2019-01-14 17:34:01 GMT 59.021812 -10.046902 34,000 313 392 0
2019-01-14 17:33:57 GMT 59.016880 -10.036484 34,000 313 392 0
2019-01-14 17:33:48 GMT 59.005875 -10.013489 34,000 315 393 0
2019-01-14 17:33:37 GMT 58.992233 -9.988770 34,000 317 395 0
2019-01-14 17:33:26 GMT 58.976395 -9.959930 34,000 320 397 0
2019-01-14 17:33:14 GMT 58.960831 -9.934387 34,000 320 397 0
2019-01-14 17:33:05 GMT 58.947796 -9.911278 34,000 320 397 0
2019-01-14 17:32:22 GMT 58.887222 -9.811707 34,000 320 398 0
2019-01-14 17:32:14 GMT 58.876602 -9.793213 34,000 320 398 0
2019-01-14 17:32:06 GMT 58.865112 -9.774719 34,000 320 398 0
2019-01-14 17:31:55 GMT 58.849850 -9.749514 34,000 320 398 0
2019-01-14 17:31:13 GMT 58.791195 -9.652863 34,000 320 398 0
2019-01-14 17:30:35 GMT 58.737473 -9.565521 34,000 320 398 0
2019-01-14 17:30:25 GMT 58.723366 -9.542542 34,000 320 398 0
2019-01-14 17:30:11 GMT 58.703537 -9.510315 34,000 320 399 0
2019-01-14 17:28:09 GMT 58.532269 -9.232910 34,000 320 398 0
2019-01-14 17:27:41 GMT 58.493271 -9.171901 34,000 320 398 0
2019-01-14 17:27:32 GMT 58.480362 -9.149485 34,000 321 397 0
2019-01-14 17:26:28 GMT 58.390182 -9.005599 34,000 321 397 -64
2019-01-14 17:26:11 GMT 58.366173 -8.967590 34,000 321 396 0
2019-01-14 17:25:48 GMT 58.334145 -8.918427 34,000 321 396 0
2019-01-14 17:25:26 GMT 58.303093 -8.869446 34,000 321 396 0
2019-01-14 17:25:20 GMT 58.294373 -8.853829 34,000 321 396 0
2019-01-14 17:25:08 GMT 58.277481 -8.827337 34,000 321 396 0
2019-01-14 17:24:45 GMT 58.244160 -8.776154 34,000 321 396 -64
2019-01-14 17:24:34 GMT 58.229324 -8.751939 34,000 321 396 0
2019-01-14 17:24:21 GMT 58.211292 -8.723145 34,000 321 395 0
2019-01-14 17:24:09 GMT 58.193649 -8.696777 34,000 321 395 0
2019-01-14 17:23:56 GMT 58.175537 -8.668213 34,000 321 394 0
2019-01-14 17:23:44 GMT 58.158646 -8.641810 34,000 321 394 0
2019-01-14 17:23:37 GMT 58.149143 -8.626465 34,000 321 394 0
2019-01-14 17:23:29 GMT 58.137276 -8.608978 34,000 321 394 0
2019-01-14 17:22:26 GMT 58.048920 -8.471434 34,000 321 393 0
2019-01-14 17:22:16 GMT 58.035645 -8.449815 34,000 321 393 0
2019-01-14 17:22:06 GMT 58.021824 -8.430084 34,000 321 393 0
2019-01-14 17:21:57 GMT 58.009068 -8.408569 34,000 321 392 0
2019-01-14 17:21:46 GMT 57.993801 -8.386780 34,000 321 393 0
2019-01-14 17:21:31 GMT 57.971687 -8.352173 34,000 321 393 0
2019-01-14 17:21:23 GMT 57.960236 -8.334778 34,000 321 393 0
2019-01-14 17:21:17 GMT 57.951950 -8.321777 34,000 321 393 0
2019-01-14 17:21:06 GMT 57.937565 -8.300079 34,000 321 393 0
2019-01-14 17:20:56 GMT 57.922211 -8.276426 34,000 321 393 -64
2019-01-14 17:20:46 GMT 57.908157 -8.254631 34,000 321 393 0
2019-01-14 17:20:35 GMT 57.893017 -8.230957 34,000 321 393 0
2019-01-14 17:20:26 GMT 57.880005 -8.211483 34,000 321 394 0
2019-01-14 17:20:15 GMT 57.865314 -8.187927 34,000 321 394 0
2019-01-14 17:20:05 GMT 57.851440 -8.168335 34,000 321 394 0
2019-01-14 17:19:54 GMT 57.835987 -8.144714 34,000 321 394 0
2019-01-14 17:19:45 GMT 57.822350 -8.123291 34,000 321 394 0
2019-01-14 17:19:35 GMT 57.808384 -8.101593 34,000 321 395 0
2019-01-14 17:19:25 GMT 57.794140 -8.080078 34,000 321 395 0
2019-01-14 17:19:14 GMT 57.778976 -8.056611 34,000 321 395 0
2019-01-14 17:19:04 GMT 57.764236 -8.034993 34,000 321 395 0
2019-01-14 17:18:53 GMT 57.749077 -8.011414 34,000 322 396 0
2019-01-14 17:18:44 GMT 57.736038 -7.992022 34,000 322 396 64
2019-01-14 17:18:33 GMT 57.720631 -7.968277 34,000 322 396 0
2019-01-14 17:18:24 GMT 57.706787 -7.948866 34,000 322 396 0
2019-01-14 17:18:11 GMT 57.689022 -7.921054 34,000 322 396 0
2019-01-14 17:18:04 GMT 57.678680 -7.905865 34,000 322 396 0
2019-01-14 17:18:01 GMT 57.675430 -7.901573 34,000 322 396 0
2019-01-14 17:17:55 GMT 57.666306 -7.886589 34,000 322 397 0
2019-01-14 17:17:52 GMT 57.662720 -7.882247 34,000 322 397 0
2019-01-14 17:17:43 GMT 57.649082 -7.860895 34,000 322 398 0
2019-01-14 17:17:33 GMT 57.634323 -7.839188 34,000 322 398 0
2019-01-14 17:17:22 GMT 57.619705 -7.817747 34,000 322 398 0
2019-01-14 17:17:14 GMT 57.607498 -7.798405 34,000 322 399 -64
2019-01-14 17:17:08 GMT 57.598709 -7.785358 34,000 322 399 0
2019-01-14 17:17:05 GMT 57.594566 -7.779029 34,000 322 399 0
2019-01-14 17:17:02 GMT 57.590469 -7.772655 34,000 322 399 0
2019-01-14 17:16:52 GMT 57.575821 -7.751026 34,000 322 399 0
2019-01-14 17:16:42 GMT 57.561310 -7.729568 34,000 322 400 0
2019-01-14 17:16:35 GMT 57.549591 -7.712231 34,000 322 399 0
2019-01-14 17:16:31 GMT 57.545502 -7.705846 34,000 322 399 0
2019-01-14 17:16:21 GMT 57.531025 -7.684316 34,000 322 399 0
2019-01-14 17:16:14 GMT 57.521118 -7.669315 34,000 322 399 0
2019-01-14 17:16:11 GMT 57.516872 -7.662698 34,000 322 400 0
2019-01-14 17:16:04 GMT 57.506241 -7.647772 34,000 322 400 0
2019-01-14 17:16:00 GMT 57.501698 -7.641434 34,000 322 400 0
2019-01-14 17:15:54 GMT 57.490894 -7.624246 34,000 322 400 0
2019-01-14 17:15:50 GMT 57.487358 -7.619816 34,000 322 400 0
2019-01-14 17:15:44 GMT 57.478043 -7.604856 34,000 322 400 0
2019-01-14 17:15:41 GMT 57.473019 -7.598463 34,000 322 400 0
2019-01-14 17:15:30 GMT 57.458450 -7.577022 34,000 322 400 0
2019-01-14 17:15:25 GMT 57.450630 -7.564087 34,000 322 400 0
2019-01-14 17:15:20 GMT 57.443710 -7.553444 34,000 322 400 0
2019-01-14 17:15:13 GMT 57.431717 -7.536278 34,000 322 400 0
2019-01-14 17:15:09 GMT 57.427917 -7.531900 34,000 322 400 0
2019-01-14 17:15:05 GMT 57.421535 -7.521205 34,000 322 400 0
2019-01-14 17:14:59 GMT 57.413387 -7.510484 34,000 322 400 0
2019-01-14 17:14:55 GMT 57.406403 -7.499852 34,000 322 400 0
2019-01-14 17:14:49 GMT 57.399078 -7.489243 34,000 322 399 0
2019-01-14 17:14:42 GMT 57.386478 -7.469994 34,000 322 399 0
2019-01-14 17:14:35 GMT 57.377151 -7.455168 34,000 322 399 0
2019-01-14 17:14:29 GMT 57.368977 -7.444389 34,000 322 399 0
2019-01-14 17:14:24 GMT 57.362091 -7.433710 34,000 322 399 0
2019-01-14 17:14:21 GMT 57.357059 -7.427467 34,000 322 399 0
2019-01-14 17:14:18 GMT 57.353302 -7.421007 34,000 322 399 0
2019-01-14 17:14:12 GMT 57.340019 -7.401950 34,000 322 399 0
2019-01-14 17:14:09 GMT 57.340019 -7.401950 34,000 322 399 0
2019-01-14 17:14:04 GMT 57.332748 -7.391224 34,000 322 399 0
2019-01-14 17:14:01 GMT 57.328197 -7.384939 34,000 322 399 0
2019-01-14 17:13:58 GMT 57.325169 -7.380598 34,000 322 399 0
2019-01-14 17:13:54 GMT 57.317394 -7.368016 34,000 322 399 0
2019-01-14 17:13:48 GMT 57.310787 -7.359511 34,000 322 399 0
2019-01-14 17:13:43 GMT 57.302315 -7.346753 34,000 322 397 0
2019-01-14 17:13:40 GMT 57.298096 -7.340412 34,000 322 399 0
2019-01-14 17:13:33 GMT 57.288162 -7.325666 34,000 322 399 0
2019-01-14 17:13:30 GMT 57.283951 -7.319298 34,000 322 398 0
2019-01-14 17:13:23 GMT 57.273590 -7.304491 34,000 322 397 0
2019-01-14 17:13:18 GMT 57.266510 -7.293892 34,000 322 397 0
2019-01-14 17:13:12 GMT 57.258728 -7.281275 34,000 322 397 0
2019-01-14 17:13:08 GMT 57.252045 -7.272949 34,025 322 397 0
2019-01-14 17:13:03 GMT 57.243576 -7.260332 34,000 322 396 0
2019-01-14 17:12:57 GMT 57.236767 -7.249825 34,000 322 396 0
2019-01-14 17:12:52 GMT 57.228699 -7.239304 34,000 322 396 0
2019-01-14 17:12:47 GMT 57.222290 -7.228827 34,000 322 396 0
2019-01-14 17:12:40 GMT 57.211487 -7.214155 34,000 322 395 0
2019-01-14 17:12:37 GMT 57.207767 -7.207829 34,000 322 395 64
2019-01-14 17:12:31 GMT 57.197571 -7.193384 34,000 322 395 0
2019-01-14 17:12:27 GMT 57.193520 -7.187096 34,000 322 395 0
2019-01-14 17:12:20 GMT 57.183334 -7.172441 34,000 322 395 0
2019-01-14 17:12:17 GMT 57.179043 -7.166187 34,000 322 392 0
2019-01-14 17:12:09 GMT 57.167637 -7.149619 34,000 322 393 0
2019-01-14 17:12:06 GMT 57.164146 -7.145455 34,000 322 393 0
2019-01-14 17:12:01 GMT 57.155998 -7.133051 34,000 322 392 -64
2019-01-14 17:11:58 GMT 57.151703 -7.126780 34,000 322 393 0
2019-01-14 17:11:55 GMT 57.148224 -7.120735 34,000 322 393 -64
2019-01-14 17:11:49 GMT 57.138451 -7.108154 34,000 322 392 0
2019-01-14 17:11:46 GMT 57.135361 -7.102060 34,000 322 392 0
2019-01-14 17:11:41 GMT 57.127369 -7.091675 34,000 322 392 0
2019-01-14 17:11:38 GMT 57.121922 -7.083612 34,000 322 391 0
2019-01-14 17:11:35 GMT 57.119827 -7.079359 34,000 322 391 0
2019-01-14 17:11:30 GMT 57.112015 -7.069187 34,000 322 391 0
2019-01-14 17:11:25 GMT 57.105583 -7.058804 34,000 322 391 0
2019-01-14 17:11:20 GMT 57.097870 -7.048588 34,000 322 391 0
2019-01-14 17:11:15 GMT 57.091385 -7.038249 34,000 322 391 0
2019-01-14 17:11:09 GMT 57.082958 -7.026111 34,000 322 390 0
2019-01-14 17:11:06 GMT 57.078690 -7.019920 34,000 322 390 0
2019-01-14 17:10:59 GMT 57.068668 -7.005468 34,000 322 390 0
2019-01-14 17:10:55 GMT 57.062290 -6.997316 34,000 322 390 0
2019-01-14 17:10:48 GMT 57.051537 -6.980926 34,000 322 390 0
2019-01-14 17:10:44 GMT 57.047104 -6.974773 34,000 322 390 0
2019-01-14 17:10:40 GMT 57.041473 -6.966619 34,000 322 390 0
2019-01-14 17:10:37 GMT 57.036873 -6.960548 34,000 322 390 0
2019-01-14 17:10:34 GMT 57.033051 -6.954432 34,000 322 390 0
2019-01-14 17:10:28 GMT 57.025002 -6.944334 34,000 322 388 -64
2019-01-14 17:10:24 GMT 57.018631 -6.934090 34,000 322 388 0
2019-01-14 17:10:19 GMT 57.010944 -6.924045 34,000 322 388 0
2019-01-14 17:10:15 GMT 57.006100 -6.915805 34,000 322 388 0
2019-01-14 17:10:08 GMT 56.996017 -6.901731 34,000 323 388 0
2019-01-14 17:10:04 GMT 56.989883 -6.893492 34,000 322 387 0
2019-01-14 17:09:58 GMT 56.981918 -6.881304 34,000 322 387 0
2019-01-14 17:09:53 GMT 56.975285 -6.871328 34,000 322 387 0
2019-01-14 17:09:48 GMT 56.967453 -6.861048 34,000 322 387 0
2019-01-14 17:09:43 GMT 56.960945 -6.851039 34,000 322 387 0
2019-01-14 17:09:37 GMT 56.952751 -6.838989 34,000 322 387 0
2019-01-14 17:09:33 GMT 56.947075 -6.830838 34,000 323 388 0
2019-01-14 17:09:28 GMT 56.932362 -6.810726 34,000 323 388 0
2019-01-14 17:09:23 GMT 56.932362 -6.810726 34,000 323 388 0
2019-01-14 17:09:17 GMT 56.917606 -6.790437 34,000 323 389 -64
2019-01-14 17:09:12 GMT 56.917606 -6.790437 34,000 323 389 0
2019-01-14 17:09:07 GMT 56.909737 -6.778387 34,000 322 389 0
2019-01-14 17:09:02 GMT 56.902588 -6.768179 34,000 323 390 0
2019-01-14 17:08:57 GMT 56.895725 -6.758009 34,000 323 390 0
2019-01-14 17:08:52 GMT 56.888489 -6.747837 34,000 323 391 0
2019-01-14 17:08:47 GMT 56.881153 -6.737809 34,000 323 392 0
2019-01-14 17:08:44 GMT 56.876816 -6.731615 34,000 323 392 0
2019-01-14 17:08:41 GMT 56.873196 -6.725671 34,000 323 392 0
2019-01-14 17:08:36 GMT 56.865234 -6.715393 34,000 323 394 0
2019-01-14 17:08:32 GMT 56.859512 -6.707239 34,000 323 394 -64
2019-01-14 17:08:26 GMT 56.850952 -6.695051 34,000 323 394 -192
2019-01-14 17:08:22 GMT 56.845230 -6.686640 34,000 323 394 256
2019-01-14 17:08:14 GMT 56.833328 -6.670418 33,925 323 396 832
2019-01-14 17:08:11 GMT 56.830490 -6.666384 33,900 323 396 832
2019-01-14 17:08:04 GMT 56.815979 -6.645784 33,750 323 397 832
2019-01-14 17:07:58 GMT 56.809696 -6.635654 33,700 323 397 832
2019-01-14 17:07:54 GMT 56.804626 -6.629477 33,650 323 397 832
2019-01-14 17:07:51 GMT 56.800854 -6.623338 33,625 323 397 832
2019-01-14 17:07:46 GMT 56.793137 -6.612911 33,525 323 397 832
2019-01-14 17:07:43 GMT 56.785217 -6.600723 33,475 323 397 832
2019-01-14 17:07:36 GMT 56.779358 -6.592398 33,400 323 397 832
2019-01-14 17:07:33 GMT 56.774876 -6.586304 33,375 323 397 832
2019-01-14 17:07:30 GMT 56.770248 -6.580124 33,325 323 397 768
2019-01-14 17:07:26 GMT 56.764114 -6.572056 33,225 323 398 1600
2019-01-14 17:07:23 GMT 56.760445 -6.565926 33,175 323 394 1472
2019-01-14 17:07:20 GMT 56.755737 -6.559868 33,100 323 394 1664
2019-01-14 17:07:15 GMT 56.748573 -6.549712 32,950 323 395 1664
2019-01-14 17:07:12 GMT 56.744385 -6.543560 32,850 323 395 1664
2019-01-14 17:07:09 GMT 56.740585 -6.539440 32,800 323 395 1664
2019-01-14 17:07:05 GMT 56.733585 -6.529157 32,675 323 397 1664
2019-01-14 17:07:02 GMT 56.728279 -6.521095 32,575 323 397 1600
2019-01-14 17:06:59 GMT 56.726074 -6.519012 32,525 323 397 1536
2019-01-14 17:06:54 GMT 56.712387 -6.498671 32,350 323 397 1536
2019-01-14 17:06:50 GMT 56.712387 -6.498671 32,275 323 397 1536
2019-01-14 17:06:45 GMT 56.703690 -6.486397 32,125 323 397 1536
2019-01-14 17:06:41 GMT 56.698391 -6.480250 32,025 323 397 1472
2019-01-14 17:06:37 GMT 56.692898 -6.472010 31,925 323 398 1536
2019-01-14 17:06:33 GMT 56.688263 -6.465883 31,850 323 398 1536
2019-01-14 17:06:30 GMT 56.682999 -6.457729 31,775 323 397 1600
2019-01-14 17:06:27 GMT 56.677094 -6.449575 31,650 323 398 1600
2019-01-14 17:06:24 GMT 56.674210 -6.445541 31,575 323 398 1600
2019-01-14 17:06:21 GMT 56.664268 -6.431078 31,475 323 398 1600
2019-01-14 17:06:18 GMT 56.664268 -6.431078 31,400 323 399 1600
2019-01-14 17:06:13 GMT 56.659058 -6.424942 31,300 323 399 1600
2019-01-14 17:06:10 GMT 56.653885 -6.416702 31,175 323 399 1600
2019-01-14 17:06:07 GMT 56.649139 -6.410700 31,100 323 399 1600
2019-01-14 17:06:01 GMT 56.640572 -6.398384 30,900 323 399 1792
2019-01-14 17:05:58 GMT 56.634846 -6.390056 30,825 323 399 1792
2019-01-14 17:05:53 GMT 56.629494 -6.381905 30,700 323 400 1792
2019-01-14 17:05:50 GMT 56.623955 -6.373754 30,575 323 400 1792
2019-01-14 17:05:47 GMT 56.618866 -6.367607 30,475 323 401 1792
2019-01-14 17:05:43 GMT 56.614784 -6.361350 30,175 323 402 1984
2019-01-14 17:05:38 GMT 56.607193 -6.351042 30,225 323 402 1920
2019-01-14 17:05:33 GMT 56.599888 -6.340795 30,075 323 402 1984
2019-01-14 17:05:29 GMT 56.593975 -6.332466 29,925 323 404 1920
2019-01-14 17:05:23 GMT 56.584572 -6.320143 29,725 323 405 1920
2019-01-14 17:05:19 GMT 56.579079 -6.311903 29,600 323 405 1984
2019-01-14 17:05:15 GMT 56.572266 -6.301491 29,450 323 406 2112
2019-01-14 17:05:11 GMT 56.563065 -6.289007 29,250 323 407 2176
2019-01-14 17:05:08 GMT 56.557205 -6.280601 29,075 323 409 2176
2019-01-14 17:05:02 GMT 56.554047 -6.276356 29,000 323 409 2176
2019-01-14 17:04:59 GMT 56.547958 -6.268116 28,850 323 410 2112
2019-01-14 17:04:52 GMT 56.539032 -6.255465 28,475 323 413 1728
2019-01-14 17:04:48 GMT 56.532990 -6.247226 28,500 323 412 2048
2019-01-14 17:04:42 GMT 56.523239 -6.234408 28,300 323 413 1728
2019-01-14 17:04:38 GMT 56.517334 -6.225919 28,125 323 413 1408
2019-01-14 17:04:34 GMT 56.510227 -6.215429 28,075 323 413 1472
2019-01-14 17:04:30 GMT 56.504974 -6.209190 27,950 323 413 1472
2019-01-14 17:04:27 GMT 56.501678 -6.204862 27,950 323 413 1472
2019-01-14 17:04:22 GMT 56.492615 -6.192377 27,775 323 413 1664
2019-01-14 17:04:17 GMT 56.473080 -6.165047 27,400 323 414 2112
2019-01-14 17:04:09 GMT 56.473080 -6.165047 27,175 323 414 2176
2019-01-14 17:04:06 GMT 56.461441 -6.148138 27,100 323 415 1920
2019-01-14 17:04:01 GMT 56.461441 -6.148138 27,100 323 415 1792
2019-01-14 17:03:57 GMT 56.455063 -6.139727 27,000 323 416 1728
2019-01-14 17:03:54 GMT 56.449894 -6.131315 26,875 323 416 1664
2019-01-14 17:03:51 GMT 56.445427 -6.127110 26,775 323 416 1600
2019-01-14 17:03:48 GMT 56.441437 -6.120883 26,675 323 415 1536
2019-01-14 17:03:45 GMT 56.435944 -6.112477 26,625 323 415 1472
2019-01-14 17:03:41 GMT 56.429306 -6.103987 26,525 323 414 1472
2019-01-14 17:03:37 GMT 56.424805 -6.097841 26,450 323 414 1408
2019-01-14 17:03:34 GMT 56.419403 -6.089516 26,350 323 413 1472
2019-01-14 17:03:28 GMT 56.409908 -6.076899 26,200 323 412 1472
2019-01-14 17:03:24 GMT 56.404449 -6.070695 26,150 323 412 1536
2019-01-14 17:03:17 GMT 56.394360 -6.056299 25,925 323 412 1600
2019-01-14 17:03:14 GMT 56.390305 -6.049971 25,800 324 410 1472
2019-01-14 17:03:10 GMT 56.382347 -6.039820 25,725 324 410 1280
2019-01-14 17:03:07 GMT 56.378483 -6.035614 25,675 324 410 1280
2019-01-14 17:03:02 GMT 56.371994 -6.025418 25,625 324 409 1344
2019-01-14 17:02:59 GMT 56.366707 -6.019306 25,500 324 409 1408
2019-01-14 17:02:56 GMT 56.361633 -6.011238 25,400 324 408 1280
2019-01-14 17:02:48 GMT 56.348690 -5.995016 25,200 324 407 1472
2019-01-14 17:02:45 GMT 56.345619 -5.990896 25,175 324 407 1472
2019-01-14 17:02:42 GMT 56.341690 -5.984885 25,100 324 408 1472
2019-01-14 17:02:38 GMT 56.335739 -5.976729 25,000 324 407 1408
2019-01-14 17:02:35 GMT 56.331371 -5.970640 24,925 324 407 1408
2019-01-14 17:02:32 GMT 56.326126 -5.964661 24,850 324 407 1344
2019-01-14 17:02:29 GMT 56.320816 -5.956504 24,775 324 406 1216
2019-01-14 17:02:26 GMT 56.316879 -5.952426 24,700 324 405 1216
2019-01-14 17:02:23 GMT 56.312008 -5.946522 24,675 324 405 1216
2019-01-14 17:02:17 GMT 56.303303 -5.934248 24,575 324 404 1216
2019-01-14 17:02:14 GMT 56.299347 -5.928289 24,525 323 404 1280
2019-01-14 17:02:11 GMT 56.294178 -5.922232 24,425 322 400 1088
2019-01-14 17:02:06 GMT 56.286942 -5.911976 24,275 319 397 1344
2019-01-14 17:02:03 GMT 56.281219 -5.903736 24,250 322 400 1152
2019-01-14 17:01:58 GMT 56.275177 -5.895413 24,175 322 399 1280
2019-01-14 17:01:54 GMT 56.269638 -5.887007 24,075 320 398 1408
2019-01-14 17:01:50 GMT 56.265106 -5.878435 24,000 319 397 1344
2019-01-14 17:01:47 GMT 56.260799 -5.871849 23,925 319 396 1344
2019-01-14 17:01:44 GMT 56.255585 -5.865201 23,850 317 395 1344
2019-01-14 17:01:35 GMT 56.244644 -5.844126 23,575 311 393 1536
2019-01-14 17:01:32 GMT 56.240707 -5.836653 23,550 309 393 1472
2019-01-14 17:01:25 GMT 56.232513 -5.815679 23,350 304 391 1472
2019-01-14 17:01:22 GMT 56.231148 -5.812969 23,350 303 391 1408
2019-01-14 17:01:19 GMT 56.227516 -5.801897 23,250 295 390 1792
2019-01-14 17:01:15 GMT 56.224026 -5.790482 23,175 298 390 1536
2019-01-14 17:01:12 GMT 56.221092 -5.778809 23,050 295 390 1728
2019-01-14 17:01:04 GMT 56.215897 -5.758251 22,750 295 390 1728
2019-01-14 17:01:01 GMT 56.213177 -5.749283 22,750 295 390 1664
2019-01-14 17:00:58 GMT 56.211273 -5.740689 22,675 295 389 1664
2019-01-14 17:00:55 GMT 56.208389 -5.728704 22,350 295 388 1536
2019-01-14 17:00:49 GMT 56.204330 -5.714178 22,425 295 388 1536
2019-01-14 17:00:44 GMT 56.200188 -5.696754 22,300 295 387 1344
2019-01-14 17:00:38 GMT 56.196167 -5.682096 22,175 295 386 1472
2019-01-14 17:00:35 GMT 56.193466 -5.670443 22,075 295 385 1536
2019-01-14 17:00:32 GMT 56.191589 -5.664534 22,025 295 385 1600
2019-01-14 17:00:28 GMT 56.188980 -5.652965 21,925 295 384 1600
2019-01-14 17:00:24 GMT 56.185776 -5.641479 21,725 295 383 1600
2019-01-14 17:00:20 GMT 56.182034 -5.626888 21,675 295 383 1600
2019-01-14 17:00:16 GMT 56.179333 -5.615559 21,575 295 383 1664
2019-01-14 17:00:13 GMT 56.177891 -5.609808 21,525 295 382 1664
2019-01-14 17:00:10 GMT 56.172684 -5.589544 21,300 295 378 1728
2019-01-14 17:00:04 GMT 56.170395 -5.581055 21,225 295 380 1664
2019-01-14 17:00:01 GMT 56.168533 -5.575390 21,150 295 380 1664
2019-01-14 16:59:58 GMT 56.166412 -5.566573 20,725 295 378 1728
2019-01-14 16:59:54 GMT 56.163574 -5.555253 20,825 295 378 1664
2019-01-14 16:59:51 GMT 56.161224 -5.546722 20,875 295 379 1600
2019-01-14 16:59:48 GMT 56.159042 -5.538191 20,725 295 378 1728
2019-01-14 16:59:44 GMT 56.156021 -5.526622 20,675 295 378 1728
2019-01-14 16:59:41 GMT 56.154102 -5.518141 20,600 295 377 1728
2019-01-14 16:59:38 GMT 56.151947 -5.509644 20,450 295 377 1728
2019-01-14 16:59:34 GMT 56.148743 -5.498408 20,400 295 376 1728
2019-01-14 16:59:31 GMT 56.146839 -5.489902 20,250 295 375 1664
2019-01-14 16:59:27 GMT 56.143814 -5.478573 20,200 295 375 1664
2019-01-14 16:59:24 GMT 56.141418 -5.470109 20,125 295 374 1664
2019-01-14 16:59:20 GMT 56.138855 -5.458790 20,025 295 374 1728
2019-01-14 16:59:17 GMT 56.136600 -5.450335 19,975 295 373 1792
2019-01-14 16:59:13 GMT 56.133804 -5.439005 19,725 295 372 1792
2019-01-14 16:59:07 GMT 56.128418 -5.419506 19,600 295 372 1792
2019-01-14 16:59:04 GMT 56.126999 -5.414096 19,550 295 371 1664
2019-01-14 16:59:01 GMT 56.124344 -5.402943 19,350 295 370 1536
2019-01-14 16:58:57 GMT 56.121700 -5.394373 19,350 295 369 1536
2019-01-14 16:58:53 GMT 56.119419 -5.383472 19,200 295 367 1728
2019-01-14 16:58:50 GMT 56.116150 -5.375061 19,150 295 366 1792
2019-01-14 16:58:47 GMT 56.114502 -5.364158 19,050 295 365 1856
2019-01-14 16:58:42 GMT 56.111252 -5.353088 18,925 295 365 1920
2019-01-14 16:58:39 GMT 56.109226 -5.345020 18,850 295 365 1984
2019-01-14 16:58:36 GMT 56.106995 -5.336692 18,750 295 365 1920
2019-01-14 16:58:32 GMT 56.103882 -5.325706 18,625 296 364 1920
2019-01-14 16:58:28 GMT 56.098099 -5.301332 18,400 295 362 1920
2019-01-14 16:58:24 GMT 56.096333 -5.295925 18,250 296 361 1920
2019-01-14 16:58:17 GMT 56.093948 -5.287753 18,150 296 361 1984
2019-01-14 16:58:14 GMT 56.091202 -5.277016 18,000 296 361 1920
2019-01-14 16:58:11 GMT 56.088978 -5.268888 17,725 296 357 1600
2019-01-14 16:58:08 GMT 56.085018 -5.252666 17,625 296 358 1664
2019-01-14 16:58:05 GMT 56.085018 -5.252666 17,750 296 357 1600
2019-01-14 16:58:01 GMT 56.082272 -5.242109 17,700 296 357 1536
2019-01-14 16:57:58 GMT 56.080078 -5.234070 17,600 296 355 1536
2019-01-14 16:57:54 GMT 56.077240 -5.223500 17,425 296 353 1792
2019-01-14 16:57:51 GMT 56.075150 -5.215416 17,350 296 349 2048
2019-01-14 16:57:47 GMT 56.072544 -5.204945 17,275 296 351 2368
2019-01-14 16:57:44 GMT 56.067581 -5.186462 17,050 296 351 2432
2019-01-14 16:57:40 GMT 56.067581 -5.186462 16,925 296 349 2048
2019-01-14 16:57:37 GMT 56.065792 -5.178595 16,850 296 350 2048
2019-01-14 16:57:33 GMT 56.062908 -5.168123 16,725 296 350 1984
2019-01-14 16:57:30 GMT 56.061184 -5.162802 16,675 296 350 2048
2019-01-14 16:57:27 GMT 56.056458 -5.144681 16,425 296 348 2048
2019-01-14 16:57:24 GMT 56.056458 -5.144681 16,325 296 348 2112
2019-01-14 16:57:21 GMT 56.053940 -5.134277 16,275 296 348 2048
2019-01-14 16:57:17 GMT 56.051685 -5.126581 16,150 296 346 2112
2019-01-14 16:57:14 GMT 56.049683 -5.118547 16,050 296 346 2048
2019-01-14 16:57:11 GMT 56.047543 -5.110788 15,975 296 345 2048
2019-01-14 16:57:07 GMT 56.044846 -5.100489 15,825 296 344 1920
2019-01-14 16:57:00 GMT 56.040298 -5.082675 15,575 296 343 1984
2019-01-14 16:56:54 GMT 56.036133 -5.067277 15,400 296 341 2048
2019-01-14 16:56:50 GMT 56.033340 -5.056957 15,250 296 340 2304
2019-01-14 16:56:46 GMT 56.030823 -5.046803 15,100 296 340 2560
2019-01-14 16:56:42 GMT 56.028488 -5.036732 14,950 296 340 2624
2019-01-14 16:56:39 GMT 56.026318 -5.028906 14,800 296 340 2560
2019-01-14 16:56:35 GMT 56.023911 -5.021251 14,650 295 339 2496
2019-01-14 16:56:32 GMT 56.021667 -5.011181 14,525 295 339 2368
2019-01-14 16:56:29 GMT 56.019707 -5.003672 14,475 295 339 2368
2019-01-14 16:56:26 GMT 56.017365 -4.996033 14,250 295 338 2304
2019-01-14 16:56:23 GMT 56.014709 -4.985795 14,100 295 337 2368
2019-01-14 16:56:19 GMT 56.013050 -4.978266 14,075 295 338 2304
2019-01-14 16:56:15 GMT 56.010349 -4.968052 13,850 295 336 2304
2019-01-14 16:56:12 GMT 56.008392 -4.960660 13,775 295 336 2304
2019-01-14 16:56:09 GMT 56.006252 -4.953117 13,675 295 336 2304
2019-01-14 16:56:05 GMT 56.003738 -4.942989 13,450 295 334 2304
2019-01-14 16:56:00 GMT 56.000336 -4.930281 13,300 295 334 2240
2019-01-14 16:55:57 GMT 55.998898 -4.922991 13,175 295 333 2240
2019-01-14 16:55:53 GMT 55.996151 -4.912777 13,000 295 333 2240
2019-01-14 16:55:48 GMT 55.992874 -4.900485 12,825 295 331 2112
2019-01-14 16:55:44 GMT 55.990585 -4.890414 12,700 295 330 2112
2019-01-14 16:55:41 GMT 55.988422 -4.883080 12,275 296 326 2112
2019-01-14 16:55:38 GMT 55.986603 -4.875766 12,475 295 328 2176
2019-01-14 16:55:34 GMT 55.983257 -4.863510 12,300 296 326 2112
2019-01-14 16:55:28 GMT 55.980011 -4.851379 12,125 296 323 2048
2019-01-14 16:55:23 GMT 55.976257 -4.837064 11,950 297 321 1664
2019-01-14 16:55:18 GMT 55.973419 -4.827492 11,750 301 314 1216
2019-01-14 16:55:14 GMT 55.970581 -4.818420 11,750 300 315 1216
2019-01-14 16:55:09 GMT 55.966778 -4.807463 11,675 305 312 1280
2019-01-14 16:55:06 GMT 55.964676 -4.801192 11,600 307 311 1280
2019-01-14 16:55:03 GMT 55.961517 -4.795446 11,525 313 307 1216
2019-01-14 16:55:00 GMT 55.958542 -4.790039 11,400 315 305 1152
2019-01-14 16:54:57 GMT 55.956070 -4.784803 11,425 320 303 1024
2019-01-14 16:54:53 GMT 55.951950 -4.780135 11,350 325 300 960
2019-01-14 16:54:50 GMT 55.946758 -4.773130 11,300 328 297 1024
2019-01-14 16:54:47 GMT 55.944477 -4.770641 11,250 330 294 1088
2019-01-14 16:54:43 GMT 55.940147 -4.765749 11,175 330 290 1152
2019-01-14 16:54:39 GMT 55.935215 -4.760857 11,125 330 287 1152
2019-01-14 16:54:36 GMT 55.931625 -4.757413 11,025 330 284 1152
2019-01-14 16:54:33 GMT 55.928185 -4.753819 10,975 330 279 1216
2019-01-14 16:54:30 GMT 55.925217 -4.750422 10,900 331 277 1216
2019-01-14 16:54:27 GMT 55.921204 -4.747038 10,825 331 273 1344
2019-01-14 16:54:21 GMT 55.913055 -4.738369 10,675 332 265 1152
2019-01-14 16:54:17 GMT 55.910400 -4.736309 10,625 333 262 1024
2019-01-14 16:54:13 GMT 55.906166 -4.732275 10,550 334 258 1088
2019-01-14 16:54:09 GMT 55.899216 -4.725702 10,425 335 252 2176
2019-01-14 16:54:03 GMT 55.895050 -4.722207 10,200 336 251 2816
2019-01-14 16:53:59 GMT 55.891407 -4.719658 10,025 336 251 2880
2019-01-14 16:53:56 GMT 55.888275 -4.717047 10,000 336 250 2880
2019-01-14 16:53:52 GMT 55.883881 -4.713634 9,700 336 249 2816
2019-01-14 16:53:48 GMT 55.879715 -4.710305 9,450 337 248 2816
2019-01-14 16:53:41 GMT 55.871750 -4.703813 9,125 337 246 3264
2019-01-14 16:53:38 GMT 55.866875 -4.699745 8,875 337 246 3136
2019-01-14 16:53:32 GMT 55.862732 -4.697321 8,675 337 246 3264
2019-01-14 16:53:28 GMT 55.859207 -4.694158 7,800 337 246 3392
2019-01-14 16:53:25 GMT 55.855843 -4.691763 8,275 337 247 3776
2019-01-14 16:53:20 GMT 55.850098 -4.687750 8,050 337 249 3776
2019-01-14 16:53:17 GMT 55.847229 -4.685240 7,725 337 251 3008
2019-01-14 16:53:10 GMT 55.839890 -4.679177 7,475 335 250 2752
2019-01-14 16:53:07 GMT 55.834213 -4.673434 7,175 331 247 2880
2019-01-14 16:53:01 GMT 55.827576 -4.667109 6,925 329 245 3008
2019-01-14 16:52:58 GMT 55.827576 -4.667109 6,825 329 246 2816
2019-01-14 16:52:54 GMT 55.825607 -4.662698 6,675 323 244 2624
2019-01-14 16:52:51 GMT 55.818741 -4.654874 6,425 315 239 2752
2019-01-14 16:52:48 GMT 55.818741 -4.654874 6,300 312 238 2816
2019-01-14 16:52:45 GMT 55.816879 -4.650650 5,925 302 235 2816
2019-01-14 16:52:41 GMT 55.813805 -4.644470 6,025 305 235 2816
2019-01-14 16:52:36 GMT 55.811188 -4.636230 5,875 301 234 2816
2019-01-14 16:52:33 GMT 55.809940 -4.630909 5,675 293 233 2816
2019-01-14 16:52:30 GMT 55.808624 -4.625577 5,525 290 232 2944
2019-01-14 16:52:27 GMT 55.807068 -4.618419 5,275 288 231 2944
2019-01-14 16:52:24 GMT 55.806683 -4.616489 5,175 288 231 2944
2019-01-14 16:52:20 GMT 55.805283 -4.607516 4,850 289 231 2816
2019-01-14 16:52:17 GMT 55.804260 -4.602156 4,775 288 231 2688
2019-01-14 16:52:14 GMT 55.803268 -4.596613 4,675 276 227 2304
2019-01-14 16:52:10 GMT 55.802307 -4.589289 4,550 278 228 2368
2019-01-14 16:52:07 GMT 55.801933 -4.583788 4,400 271 227 2112
2019-01-14 16:52:03 GMT 55.802074 -4.576406 4,225 258 224 1536
2019-01-14 16:52:00 GMT 55.802582 -4.570895 4,200 253 223 1216
2019-01-14 16:51:57 GMT 55.803658 -4.565678 4,125 248 220 960
2019-01-14 16:51:54 GMT 55.805145 -4.559326 4,075 238 217 960
2019-01-14 16:51:50 GMT 55.807068 -4.554998 4,000 232 214 1088
2019-01-14 16:51:46 GMT 55.810036 -4.548512 3,925 226 208 1280
2019-01-14 16:51:40 GMT 55.813797 -4.542514 3,800 226 198 1024
2019-01-14 16:51:35 GMT 55.817062 -4.536667 3,700 226 193 1024
2019-01-14 16:51:27 GMT 55.822311 -4.526700 3,550 227 179 960
2019-01-14 16:51:23 GMT 55.824188 -4.523621 3,500 227 174 896
2019-01-14 16:51:20 GMT 55.826374 -4.519415 3,450 228 166 832
2019-01-14 16:51:14 GMT 55.828720 -4.514465 2,950 227 150 2304
2019-01-14 16:51:08 GMT 55.831512 -4.508806 3,225 228 152 2048
2019-01-14 16:51:05 GMT 55.833435 -4.505144 3,050 227 150 2304
2019-01-14 16:50:59 GMT 55.836010 -4.500618 2,875 227 150 2368
2019-01-14 16:50:55 GMT 55.838943 -4.495211 2,600 228 150 2496
2019-01-14 16:50:46 GMT 55.842712 -4.488001 2,275 227 149 2240
2019-01-14 16:50:43 GMT 55.843597 -4.486198 2,200 227 149 2240
2019-01-14 16:50:39 GMT 55.845695 -4.482679 2,050 228 148 2240
2019-01-14 16:50:33 GMT 55.848724 -4.476346 1,850 229 147 2304
2019-01-14 16:50:29 GMT 55.850555 -4.472684 1,625 229 146 2624
2019-01-14 16:50:24 GMT 55.852478 -4.469022 1,425 229 146 2880
2019-01-14 16:50:14 GMT 55.857101 -4.460033 925 226 151 2624
2019-01-14 16:50:04 GMT 55.862045 -4.451211 450 225 151 3136
2019-01-14 16:49:53 GMT 55.867249 -4.441137 -25 227 156 1600
2019-01-14 16:49:43 GMT 55.872253 -4.432576 0 225 130
2019-01-14 16:49:34 GMT 55.875813 -4.425838 0 227 94
2019-01-14 16:49:22 GMT 55.878273 -4.421290 0 227 54
2019-01-14 16:49:13 GMT 55.879002 -4.420023 0 225 6
2019-01-14 16:49:00 GMT 55.879040 -4.419979 0 225 0
2019-01-14 16:48:52 GMT 55.879040 -4.419958 0 225 2
2019-01-14 16:48:42 GMT 55.879200 -4.419646 0 239 8
2019-01-14 16:48:32 GMT 55.879154 -4.418980 0 309 11
2019-01-14 16:48:22 GMT 55.878777 -4.418543 0 345 10
2019-01-14 16:48:12 GMT 55.878372 -4.418478 0 2 9
2019-01-14 16:47:18 GMT 55.878162 -4.418521 0 45 1
2019-01-14 16:47:02 GMT 55.877987 -4.418605 0 45 5
2019-01-14 16:46:51 GMT 55.877781 -4.418778 0 45 6
2019-01-14 16:46:42 GMT 55.877583 -4.419014 0 45 5
2019-01-14 16:46:21 GMT 55.877163 -4.419765 0 47 8
2019-01-14 16:46:11 GMT 55.876873 -4.420280 0 45 12
2019-01-14 16:46:01 GMT 55.876488 -4.421031 0 45 16
2019-01-14 16:45:51 GMT 55.875999 -4.421954 0 45 16
2019-01-14 16:45:39 GMT 55.875416 -4.423027 0 45 15
2019-01-14 16:45:30 GMT 55.875000 -4.423807 0 47 15
2019-01-14 16:45:20 GMT 55.874554 -4.424640 0 47 14
2019-01-14 16:45:09 GMT 55.874107 -4.425430 0 45 14
2019-01-14 16:45:00 GMT 55.873650 -4.426034 0 22 13
2019-01-14 16:44:50 GMT 55.872986 -4.426482 0 19 16
2019-01-14 16:44:28 GMT 55.871498 -4.427532 0 19 18
2019-01-14 16:43:21 GMT 55.867992 -4.433262 0 73 18
2019-01-14 16:42:55 GMT 55.867481 -4.436438 0 75 15
2019-01-14 16:42:35 GMT 55.866806 -4.438584 0 45 17
2019-01-14 16:42:25 GMT 55.866283 -4.439528 0 47 15
2019-01-14 16:42:16 GMT 55.865887 -4.440172 0 28 10
2019-01-14 16:42:05 GMT 55.865467 -4.440193 0 331 10
2019-01-14 16:41:54 GMT 55.865021 -4.439808 0 331 10
2019-01-14 16:41:46 GMT 55.864723 -4.439538 0 331 8
2019-01-14 16:41:35 GMT 55.864525 -4.439335 0 0
2019-01-14 16:40:30 GMT 55.864517 -4.439330 0 0
2019-01-14 16:39:49 GMT 55.864525 -4.439335 0 0
2019-01-14 16:39:34 GMT 55.864517 -4.439330 0 0
2019-01-14 16:39:29 GMT 55.864525 -4.439335 0 0
2019-01-14 16:38:58 GMT 55.864517 -4.439330 0 0
2019-01-14 16:38:52 GMT 55.864529 -4.439330 0 0
2019-01-14 16:38:42 GMT 55.864574 -4.439392 0 2
2019-01-14 16:38:32 GMT 55.864620 -4.439475 0 2
2019-01-14 16:38:22 GMT 55.864632 -4.439642 0 3
2019-01-14 16:38:12 GMT 55.864574 -4.439787 0 3
2019-01-14 16:37:52 GMT 55.864403 -4.439975 0 3
2019-01-14 16:37:37 GMT 55.864269 -4.440172 0 4
2019-01-14 16:37:31 GMT 55.864208 -4.440300 0 4
2019-01-14 16:37:21 GMT 55.864151 -4.440515 0 2
We lost coverage of the aircraft here for a total of 200 minutes
2019-01-14 13:17:40 GMT 55.864151 -4.440558 0 151 0 0
2019-01-14 13:17:35 GMT 55.864151 -4.440557 0 151 2 0
2019-01-14 13:17:20 GMT 55.864151 -4.440558 0 151 0 0
2019-01-14 13:17:17 GMT 55.864151 -4.440557 0 151 0 0
2019-01-14 13:17:06 GMT 55.864151 -4.440558 0 151 0 0
2019-01-14 13:16:56 GMT 55.864151 -4.440515 0 151 2 0
2019-01-14 13:16:44 GMT 55.864185 -4.440408 0 151 0 0
2019-01-14 13:16:35 GMT 55.864197 -4.440412 0 151 0 0
2019-01-14 13:15:31 GMT 55.864185 -4.440412 0 151 0 0
2019-01-14 13:14:11 GMT 55.864185 -4.440408 0 151 0 0
2019-01-14 13:13:32 GMT 55.864185 -4.440412 0 151 0 0
2019-01-14 13:12:21 GMT 55.864185 -4.440408 0 151 0 0
2019-01-14 13:12:07 GMT 55.864197 -4.440412 0 151 0 0
2019-01-14 13:11:56 GMT 55.864185 -4.440412 0 151 0 0
2019-01-14 13:11:25 GMT 55.864185 -4.440408 0 151 0 0
2019-01-14 13:11:18 GMT 55.864220 -4.440328 0 151 4 0
2019-01-14 13:11:09 GMT 55.864323 -4.439933 0 151 6 0
2019-01-14 13:10:58 GMT 55.864502 -4.439507 0 151 7 0
2019-01-14 13:10:49 GMT 55.864758 -4.439579 0 151 9 0
2019-01-14 13:10:42 GMT 55.865002 -4.439807 0 154 9 0
2019-01-14 13:10:36 GMT 55.865211 -4.440000 0 151 9 0
2019-01-14 13:10:27 GMT 55.865467 -4.440343 0 118 9 0
2019-01-14 13:10:08 GMT 55.865170 -4.441577 0 45 12 0
2019-01-14 13:10:05 GMT 55.865032 -4.441847 0 45 12 0
2019-01-14 13:09:56 GMT 55.864723 -4.442468 0 47 12 0
2019-01-14 13:09:47 GMT 55.864368 -4.443096 0 45 12 0
2019-01-14 13:09:36 GMT 55.863998 -4.443755 0 50 11 0
2019-01-14 13:09:25 GMT 55.863682 -4.444573 0 61 11 0
2019-01-14 13:09:16 GMT 55.863785 -4.445177 0 137 11 0
2019-01-14 13:09:07 GMT 55.864300 -4.445301 0 196 18 0
2019-01-14 13:08:55 GMT 55.865189 -4.444871 0 196 18 0
2019-01-14 13:08:45 GMT 55.865925 -4.444219 0 213 21 0
2019-01-14 13:08:34 GMT 55.866783 -4.442832 0 225 25 0
2019-01-14 13:08:25 GMT 55.867859 -4.440807 0 227 49 0
2019-01-14 13:08:14 GMT 55.872711 -4.431589 0 225 68 0
2019-01-14 13:08:03 GMT 55.872711 -4.431589 0 225 105 0
2019-01-14 13:07:54 GMT 55.875767 -4.425602 0 227 130 0
2019-01-14 13:07:42 GMT 55.880562 -4.416590 0 226 125 -832
2019-01-14 13:07:34 GMT 55.884007 -4.410410 100 227 132 -576
2019-01-14 13:07:28 GMT 55.886307 -4.406350 150 227 134 -448
2019-01-14 13:07:23 GMT 55.888458 -4.402272 200 227 131 -704
2019-01-14 13:07:13 GMT 55.892616 -4.394360 300 227 132 -960
2019-01-14 13:06:59 GMT 55.898804 -4.382380 500 227 133 -832
2019-01-14 13:06:55 GMT 55.900818 -4.379134 575 227 133 -832
2019-01-14 13:06:52 GMT 55.901695 -4.376764 600 226 133 -512
2019-01-14 13:06:47 GMT 55.903885 -4.372808 675 225 133 -704
2019-01-14 13:06:40 GMT 55.907051 -4.367237 775 226 132 -576
2019-01-14 13:06:35 GMT 55.909012 -4.363320 825 227 130 -640
2019-01-14 13:06:32 GMT 55.910355 -4.361057 850 228 129 -576
2019-01-14 13:06:28 GMT 55.912170 -4.357967 900 226 126 -768
2019-01-14 13:06:22 GMT 55.914871 -4.352667 975 227 124 -576
2019-01-14 13:06:17 GMT 55.916336 -4.349587 1,025 227 123 -704
2019-01-14 13:06:09 GMT 55.919586 -4.343761 1,150 227 124 -640
2019-01-14 13:06:04 GMT 55.921482 -4.339943 1,150 226 125 -448
2019-01-14 13:06:01 GMT 55.922699 -4.337685 1,175 227 130 -768
2019-01-14 13:05:55 GMT 55.925400 -4.333108 1,250 227 130 -640
2019-01-14 13:05:52 GMT 55.926773 -4.329862 1,300 227 132 -896
2019-01-14 13:05:46 GMT 55.929024 -4.325867 1,375 227 135 -960
2019-01-14 13:05:41 GMT 55.931213 -4.321705 1,425 227 138 -768
2019-01-14 13:05:36 GMT 55.933582 -4.317541 1,500 227 139 -704
2019-01-14 13:05:31 GMT 55.935562 -4.313382 1,575 227 138 -704
2019-01-14 13:05:25 GMT 55.938309 -4.308388 1,650 227 140 -768
2019-01-14 13:05:21 GMT 55.940048 -4.304976 1,700 227 140 -704
2019-01-14 13:05:18 GMT 55.941685 -4.302435 1,725 227 141 -768
2019-01-14 13:05:14 GMT 55.943314 -4.299088 1,775 227 142 -768
2019-01-14 13:05:11 GMT 55.944672 -4.296487 1,825 227 142 -832
2019-01-14 13:05:08 GMT 55.946201 -4.293852 1,825 227 142 -832
2019-01-14 13:05:02 GMT 55.948807 -4.288616 1,950 227 147 -832
2019-01-14 13:04:59 GMT 55.950901 -4.285097 1,950 227 147 -832
2019-01-14 13:04:54 GMT 55.952911 -4.280590 2,075 227 149 -704
2019-01-14 13:04:51 GMT 55.955200 -4.277011 2,125 228 136 0
2019-01-14 13:04:44 GMT 55.957123 -4.273432 2,200 227 152 -768
2019-01-14 13:04:41 GMT 55.960354 -4.266987 2,250 227 153 -832
2019-01-14 13:04:34 GMT 55.962215 -4.263296 2,325 227 153 -960
2019-01-14 13:04:31 GMT 55.963760 -4.260531 2,400 228 151 -832
2019-01-14 13:04:28 GMT 55.965195 -4.257803 2,450 228 148 -960
2019-01-14 13:04:23 GMT 55.967194 -4.254284 2,525 227 142 -640
2019-01-14 13:04:20 GMT 55.968685 -4.250851 2,575 228 140 -1600
2019-01-14 13:04:17 GMT 55.969849 -4.249134 2,625 228 138 -1024
2019-01-14 13:04:11 GMT 55.972733 -4.243303 2,775 228 137 -832
2019-01-14 13:04:07 GMT 55.974335 -4.239890 2,825 228 136 -896
2019-01-14 13:04:02 GMT 55.976505 -4.235744 2,925 228 137 -832
2019-01-14 13:03:58 GMT 55.978638 -4.231567 2,950 227 138 -704
2019-01-14 13:03:52 GMT 55.980835 -4.227419 3,025 226 141 -896
2019-01-14 13:03:49 GMT 55.982208 -4.224909 3,050 225 142 -1088
2019-01-14 13:03:46 GMT 55.983860 -4.222441 3,125 225 144 -1024
2019-01-14 13:03:40 GMT 55.987335 -4.216586 3,250 223 150 -1088
2019-01-14 13:03:37 GMT 55.988388 -4.214921 3,300 222 151 -1024
2019-01-14 13:03:32 GMT 55.990795 -4.210682 3,400 223 153 -1472
2019-01-14 13:03:29 GMT 55.992554 -4.208097 3,450 223 155 -1472
2019-01-14 13:03:26 GMT 55.993916 -4.205532 3,525 223 156 -1280
2019-01-14 13:03:22 GMT 55.996384 -4.202013 3,625 221 159 -1216
2019-01-14 13:03:19 GMT 55.998478 -4.198580 3,750 213 169 -640
2019-01-14 13:03:16 GMT 55.999550 -4.196949 3,725 217 165 -640
2019-01-14 13:03:09 GMT 56.004856 -4.190769 3,825 211 173 -960
2019-01-14 13:03:06 GMT 56.006207 -4.189310 3,850 211 174 -1024
2019-01-14 13:03:00 GMT 56.010441 -4.184847 3,950 211 176 -832
2019-01-14 13:02:56 GMT 56.013233 -4.181929 4,025 211 177 -1024
2019-01-14 13:02:50 GMT 56.017704 -4.177551 4,100 205 185 -512
2019-01-14 13:02:46 GMT 56.020683 -4.174719 4,150 207 182 -640
2019-01-14 13:02:40 GMT 56.024826 -4.171559 4,225 201 188 -640
2019-01-14 13:02:35 GMT 56.029110 -4.169226 4,275 191 194 -768
2019-01-14 13:02:29 GMT 56.035034 -4.168646 4,350 179 202 -704
2019-01-14 13:02:26 GMT 56.038696 -4.169894 4,425 164 210 -1088
2019-01-14 13:02:21 GMT 56.042999 -4.172225 4,525 155 215 -960
2019-01-14 13:02:15 GMT 56.047943 -4.177801 4,575 144 222 -1024
2019-01-14 13:02:08 GMT 56.052807 -4.186993 4,725 129 226 -1088
2019-01-14 13:02:05 GMT 56.054855 -4.191451 4,775 126 227 -896
2019-01-14 13:02:00 GMT 56.059937 -4.204018 4,950 124 235 -448
2019-01-14 13:01:56 GMT 56.059937 -4.204018 4,900 124 231 -320
2019-01-14 13:01:50 GMT 56.064117 -4.215145 5,000 123 238 -704
2019-01-14 13:01:47 GMT 56.065933 -4.219915 4,950 124 235 -576
2019-01-14 13:01:44 GMT 56.067471 -4.224758 4,975 123 237 -640
2019-01-14 13:01:40 GMT 56.070557 -4.232982 5,050 123 240 -768
2019-01-14 13:01:37 GMT 56.074219 -4.243053 5,100 123 243 -832
2019-01-14 13:01:29 GMT 56.077103 -4.249795 5,150 123 246 -1024
2019-01-14 13:01:26 GMT 56.078968 -4.254885 5,225 123 247 -1216
2019-01-14 13:01:19 GMT 56.083420 -4.266774 5,450 124 249 -1152
2019-01-14 13:01:16 GMT 56.085346 -4.271965 5,450 124 249 -1152
2019-01-14 13:01:13 GMT 56.087036 -4.277094 5,500 124 249 -1152
2019-01-14 13:01:06 GMT 56.092140 -4.288960 5,675 124 250 -1216
2019-01-14 13:00:59 GMT 56.096832 -4.300815 5,825 125 250 -1344
2019-01-14 13:00:54 GMT 56.100101 -4.309387 5,975 125 250 -1344
2019-01-14 13:00:48 GMT 56.103687 -4.319687 6,150 125 253 -1152
2019-01-14 13:00:43 GMT 56.107452 -4.328114 6,175 125 253 -1280
2019-01-14 13:00:40 GMT 56.109505 -4.333248 6,350 125 258 -960
2019-01-14 13:00:34 GMT 56.116581 -4.350672 6,400 125 260 -832
2019-01-14 13:00:26 GMT 56.118713 -4.355996 6,425 126 270 -640
2019-01-14 13:00:23 GMT 56.121780 -4.363154 6,475 126 269 -512
2019-01-14 13:00:17 GMT 56.126175 -4.373973 6,550 126 274 -704
2019-01-14 13:00:14 GMT 56.128639 -4.379511 6,575 128 278 -640
2019-01-14 13:00:05 GMT 56.135880 -4.395530 6,700 132 284 -832
2019-01-14 13:00:02 GMT 56.139679 -4.402272 6,725 134 285 -832
2019-01-14 12:59:56 GMT 56.145069 -4.412556 6,850 135 294 -1088
2019-01-14 12:59:53 GMT 56.147690 -4.415921 6,875 135 294 -1216
2019-01-14 12:59:46 GMT 56.153683 -4.428005 7,025 135 299 -1792
2019-01-14 12:59:42 GMT 56.157440 -4.433233 7,150 135 299 -1856
2019-01-14 12:59:37 GMT 56.165833 -4.449034 7,425 135 302 -1280
2019-01-14 12:59:31 GMT 56.168976 -4.454373 7,425 135 302 -1280
2019-01-14 12:59:24 GMT 56.179047 -4.472018 7,650 135 304 -1472
2019-01-14 12:59:21 GMT 56.179047 -4.472018 7,700 136 304 -1408
2019-01-14 12:59:15 GMT 56.185181 -4.482339 7,825 137 305 -1408
2019-01-14 12:59:12 GMT 56.187698 -4.485751 7,900 138 304 -1408
2019-01-14 12:59:05 GMT 56.196442 -4.498568 8,100 143 303 -1472
2019-01-14 12:59:02 GMT 56.199352 -4.503107 8,175 144 303 -1408
2019-01-14 12:58:55 GMT 56.207291 -4.513467 8,350 143 303 -1280
2019-01-14 12:58:52 GMT 56.210709 -4.517870 8,400 143 302 -1280
2019-01-14 12:58:45 GMT 56.218735 -4.528365 8,525 144 303 -1088
2019-01-14 12:58:42 GMT 56.222443 -4.532804 8,575 143 303 -1152
2019-01-14 12:58:35 GMT 56.230587 -4.544649 8,750 144 303 -1152
2019-01-14 12:58:31 GMT 56.234024 -4.549172 8,800 144 303 -1088
2019-01-14 12:58:28 GMT 56.238270 -4.553490 8,875 144 304 -896
2019-01-14 12:58:23 GMT 56.243271 -4.560908 8,950 144 305 -832
2019-01-14 12:58:20 GMT 56.247208 -4.565420 8,975 144 306 -384
2019-01-14 12:58:12 GMT 56.257141 -4.578885 9,000 144 310 0
2019-01-14 12:58:03 GMT 56.265968 -4.589453 9,000 144 311 -64
2019-01-14 12:58:00 GMT 56.271561 -4.596946 9,000 144 309 0
2019-01-14 12:57:54 GMT 56.278381 -4.605935 9,000 143 307 64
2019-01-14 12:57:51 GMT 56.281311 -4.609098 9,025 143 307 64
2019-01-14 12:57:43 GMT 56.289688 -4.621083 9,000 143 302 128
2019-01-14 12:57:40 GMT 56.293201 -4.625673 9,000 143 302 128
2019-01-14 12:57:36 GMT 56.297855 -4.631596 8,975 143 300 64
2019-01-14 12:57:33 GMT 56.300903 -4.636147 8,975 142 300 64
2019-01-14 12:57:30 GMT 56.312622 -4.651212 9,000 142 305 -832
2019-01-14 12:57:22 GMT 56.312622 -4.651212 9,050 143 304 -896
2019-01-14 12:57:19 GMT 56.316059 -4.655800 9,050 142 305 -1024
2019-01-14 12:57:16 GMT 56.319305 -4.660450 9,150 142 305 -1088
2019-01-14 12:57:13 GMT 56.323929 -4.666526 9,225 142 305 -832
2019-01-14 12:57:10 GMT 56.327278 -4.671078 9,250 143 306 -832
2019-01-14 12:57:02 GMT 56.336166 -4.683523 9,350 143 307 -640
2019-01-14 12:56:59 GMT 56.339035 -4.688166 9,375 142 308 -640
2019-01-14 12:56:52 GMT 56.346783 -4.699316 9,475 139 311 -576
2019-01-14 12:56:49 GMT 56.350571 -4.704396 9,475 137 312 -640
2019-01-14 12:56:42 GMT 56.357628 -4.717684 9,575 127 315 -832
2019-01-14 12:56:39 GMT 56.360184 -4.724288 9,600 124 315 -768
2019-01-14 12:56:32 GMT 56.365170 -4.740515 9,725 110 314 -832
2019-01-14 12:56:29 GMT 56.366501 -4.747758 9,750 107 314 -832
2019-01-14 12:56:21 GMT 56.368881 -4.768150 9,875 96 311 -1024
2019-01-14 12:56:18 GMT 56.369156 -4.773476 9,925 90 310 -1152
2019-01-14 12:56:11 GMT 56.368423 -4.793868 10,000 79 305 -192
2019-01-14 12:56:08 GMT 56.367638 -4.801111 10,000 77 303 -192
2019-01-14 12:56:01 GMT 56.364166 -4.817422 10,075 62 295 -576
2019-01-14 12:55:58 GMT 56.362144 -4.823685 10,100 35 289 -1152
2019-01-14 12:55:50 GMT 56.355625 -4.838619 10,250 44 286 -1408
2019-01-14 12:55:47 GMT 56.353348 -4.841795 10,300 41 285 -1024
2019-01-14 12:55:40 GMT 56.344849 -4.855042 10,400 36 285 -896
2019-01-14 12:55:37 GMT 56.342606 -4.857788 10,450 35 286 -1024
2019-01-14 12:55:31 GMT 56.335190 -4.866278 10,575 35 287 -1216
2019-01-14 12:55:28 GMT 56.331894 -4.871937 10,650 36 288 -1152
2019-01-14 12:55:25 GMT 56.328964 -4.874684 10,700 35 289 -1152
2019-01-14 12:55:19 GMT 56.323601 -4.881878 10,825 35 290 -1856
2019-01-14 12:55:16 GMT 56.319920 -4.887543 10,925 36 290 -1856
2019-01-14 12:55:07 GMT 56.306606 -4.904709 11,225 35 292 -1856
2019-01-14 12:54:59 GMT 56.299995 -4.913292 11,500 36 294 -1920
2019-01-14 12:54:48 GMT 56.287994 -4.929366 11,850 36 296 -1920
2019-01-14 12:54:45 GMT 56.279160 -4.941184 12,725 37 302 -2048
2019-01-14 12:54:39 GMT 56.279160 -4.941184 12,125 37 298 -1920
2019-01-14 12:54:36 GMT 56.275742 -4.945650 12,200 37 299 -1920
2019-01-14 12:54:30 GMT 56.268356 -4.956332 12,425 37 301 -1984
2019-01-14 12:54:26 GMT 56.264709 -4.960928 12,525 37 302 -2048
2019-01-14 12:54:19 GMT 56.253956 -4.976377 12,825 37 301 -2496
2019-01-14 12:54:16 GMT 56.253956 -4.976377 12,925 37 301 -2496
2019-01-14 12:54:08 GMT 56.244553 -4.988737 13,275 37 301 -2624
2019-01-14 12:54:05 GMT 56.241898 -4.993286 13,350 37 301 -2624
2019-01-14 12:53:58 GMT 56.230362 -5.008767 13,800 37 301 -2432
2019-01-14 12:53:48 GMT 56.222031 -5.021085 14,125 37 302 -2368
2019-01-14 12:53:45 GMT 56.219284 -5.024164 14,225 38 303 -2368
2019-01-14 12:53:38 GMT 56.211872 -5.035086 14,500 38 305 -2496
2019-01-14 12:53:35 GMT 56.208023 -5.039812 14,625 38 305 -2496
2019-01-14 12:53:28 GMT 56.199829 -5.052379 14,950 38 306 -2496
2019-01-14 12:53:24 GMT 56.196854 -5.055542 15,025 38 307 -2496
2019-01-14 12:53:17 GMT 56.188248 -5.068526 15,300 39 307 -2432
2019-01-14 12:53:14 GMT 56.185387 -5.073195 15,450 39 309 -2432
2019-01-14 12:53:07 GMT 56.177078 -5.084672 15,725 38 310 -2432
2019-01-14 12:53:04 GMT 56.174259 -5.089417 15,775 38 310 -2432
2019-01-14 12:52:57 GMT 56.165909 -5.100819 16,150 38 312 -2496
2019-01-14 12:52:53 GMT 56.161331 -5.107228 16,325 38 313 -2496
2019-01-14 12:52:47 GMT 56.151264 -5.121861 16,650 38 316 -2432
2019-01-14 12:52:44 GMT 56.151264 -5.121861 16,675 38 314 -2432
2019-01-14 12:52:39 GMT 56.145401 -5.129866 16,925 38 316 -2368
2019-01-14 12:52:36 GMT 56.141674 -5.134907 17,000 38 316 -2368
2019-01-14 12:52:33 GMT 56.138672 -5.139604 17,625 38 320 -2688
2019-01-14 12:52:27 GMT 56.131989 -5.149592 17,350 38 319 -2560
2019-01-14 12:52:24 GMT 56.129059 -5.152754 17,450 38 320 -2560
2019-01-14 12:52:21 GMT 56.124847 -5.159413 17,550 38 320 -2624
2019-01-14 12:52:17 GMT 56.119995 -5.166071 17,800 38 322 -2752
2019-01-14 12:52:13 GMT 56.115829 -5.172813 17,950 38 322 -2816
2019-01-14 12:52:09 GMT 56.108231 -5.182884 18,700 39 327 -2816
2019-01-14 12:52:03 GMT 56.103836 -5.189875 18,450 39 325 -2752
2019-01-14 12:51:58 GMT 56.094177 -5.203691 18,725 39 327 -2880
2019-01-14 12:51:55 GMT 56.094177 -5.203691 18,825 39 327 -2880
2019-01-14 12:51:49 GMT 56.087402 -5.213928 19,100 39 328 -2816
2019-01-14 12:51:46 GMT 56.084183 -5.219193 19,200 39 328 -2816
2019-01-14 12:51:43 GMT 56.080765 -5.224249 19,350 39 328 -2688
2019-01-14 12:51:40 GMT 56.077011 -5.229578 19,375 39 328 -2752
2019-01-14 12:51:37 GMT 56.073532 -5.234736 19,625 39 329 -2560
2019-01-14 12:51:34 GMT 56.066299 -5.244973 19,800 39 331 -2432
2019-01-14 12:51:31 GMT 56.066299 -5.244973 19,825 39 329 -2432
2019-01-14 12:51:25 GMT 56.057693 -5.257130 20,175 38 332 -2432
2019-01-14 12:51:21 GMT 56.054672 -5.262368 20,450 38 335 -2368
2019-01-14 12:51:18 GMT 56.049500 -5.269276 20,475 38 335 -2368
2019-01-14 12:51:12 GMT 56.044006 -5.277987 20,775 39 338 -2496
2019-01-14 12:51:05 GMT 56.035034 -5.290250 20,925 39 339 -2496
2019-01-14 12:51:01 GMT 56.030823 -5.297241 21,075 38 340 -2560
2019-01-14 12:50:55 GMT 56.018005 -5.315136 21,475 39 342 -2752
2019-01-14 12:50:51 GMT 56.018005 -5.315136 21,475 39 342 -2752
2019-01-14 12:50:45 GMT 56.010406 -5.325789 21,775 39 344 -2752
2019-01-14 12:50:42 GMT 56.006104 -5.332947 21,975 38 344 -2816
2019-01-14 12:50:34 GMT 55.990677 -5.354503 22,475 38 345 -2752
2019-01-14 12:50:30 GMT 55.990677 -5.354503 22,550 38 345 -2816
2019-01-14 12:50:27 GMT 55.987446 -5.359783 22,675 38 346 -2816
2019-01-14 12:50:24 GMT 55.985184 -5.361578 22,850 38 346 -2944
2019-01-14 12:50:21 GMT 55.980423 -5.368736 22,950 38 347 -3008
2019-01-14 12:50:18 GMT 55.977951 -5.372231 23,050 38 347 -3008
2019-01-14 12:50:14 GMT 55.972221 -5.381241 23,275 38 348 -2944
2019-01-14 12:50:10 GMT 55.966095 -5.390209 23,500 39 349 -2944
2019-01-14 12:50:06 GMT 55.962448 -5.395746 23,650 39 349 -2880
2019-01-14 12:50:03 GMT 55.959187 -5.399351 23,775 39 349 -2752
2019-01-14 12:50:00 GMT 55.955429 -5.404857 23,900 39 351 -2624
2019-01-14 12:49:57 GMT 55.951649 -5.410337 24,050 39 351 -2496
2019-01-14 12:49:53 GMT 55.946293 -5.417633 24,175 39 351 -2432
2019-01-14 12:49:49 GMT 55.940094 -5.426913 24,400 39 355 -2240
2019-01-14 12:49:46 GMT 55.937668 -5.430659 24,475 39 355 -2304
2019-01-14 12:49:43 GMT 55.932953 -5.437983 24,600 39 357 -2112
2019-01-14 12:49:39 GMT 55.924942 -5.449385 24,900 39 360 -2112
2019-01-14 12:49:33 GMT 55.919769 -5.457042 24,975 39 361 -2112
2019-01-14 12:49:28 GMT 55.913242 -5.466471 25,150 39 363 -2112
2019-01-14 12:49:25 GMT 55.908493 -5.474024 25,275 39 365 -2112
2019-01-14 12:49:20 GMT 55.902512 -5.483676 25,450 39 377 -2496
2019-01-14 12:49:16 GMT 55.898533 -5.489388 25,550 39 367 -2112
2019-01-14 12:49:13 GMT 55.893768 -5.495245 25,675 39 370 -2048
2019-01-14 12:49:10 GMT 55.890106 -5.501232 25,800 39 372 -2112
2019-01-14 12:49:07 GMT 55.886673 -5.506897 25,875 39 372 -2112
2019-01-14 12:49:04 GMT 55.882050 -5.512733 25,975 39 373 -2176
2019-01-14 12:49:00 GMT 55.876232 -5.520802 26,200 39 375 -2240
2019-01-14 12:48:57 GMT 55.872803 -5.526622 26,250 39 375 -2304
2019-01-14 12:48:54 GMT 55.868832 -5.532560 26,350 39 376 -2432
2019-01-14 12:48:51 GMT 55.863522 -5.540543 26,525 39 378 -2496
2019-01-14 12:48:44 GMT 55.854912 -5.552387 26,800 39 379 -2496
2019-01-14 12:48:41 GMT 55.852119 -5.556507 26,875 39 379 -2496
2019-01-14 12:48:37 GMT 55.845978 -5.566323 27,150 39 380 -2496
2019-01-14 12:48:34 GMT 55.841877 -5.572386 27,200 39 381 -2496
2019-01-14 12:48:31 GMT 55.831924 -5.586298 27,400 39 382 -2560
2019-01-14 12:48:27 GMT 55.831924 -5.586298 27,625 39 382 -2560
2019-01-14 12:48:24 GMT 55.827679 -5.592299 27,650 39 383 -2560
2019-01-14 12:48:20 GMT 55.820557 -5.604229 27,850 39 383 -2560
2019-01-14 12:48:17 GMT 55.818787 -5.606190 27,925 38 384 -2624
2019-01-14 12:48:13 GMT 55.813019 -5.614014 28,000 38 384 -2624
2019-01-14 12:48:08 GMT 55.799606 -5.633739 28,550 37 385 -2432
2019-01-14 12:48:04 GMT 55.796219 -5.637568 28,525 37 385 -2432
2019-01-14 12:48:01 GMT 55.796219 -5.637568 28,625 37 385 -2496
2019-01-14 12:47:57 GMT 55.789970 -5.647144 28,800 37 385 -1984
2019-01-14 12:47:54 GMT 55.787659 -5.649137 28,925 37 386 -1984
2019-01-14 12:47:51 GMT 55.781219 -5.658646 29,000 37 386 -1984
2019-01-14 12:47:46 GMT 55.775261 -5.666456 29,125 37 386 -1984
2019-01-14 12:47:42 GMT 55.769722 -5.674095 30,425 37 395 -1472
2019-01-14 12:47:39 GMT 55.765503 -5.679765 29,350 37 387 -1920
2019-01-14 12:47:36 GMT 55.759598 -5.687506 29,500 37 387 -1920
2019-01-14 12:47:31 GMT 55.753876 -5.695163 29,675 37 389 -1920
2019-01-14 12:47:28 GMT 55.748474 -5.702820 29,750 37 389 -1856
2019-01-14 12:47:25 GMT 55.745682 -5.706648 29,800 37 389 -1792
2019-01-14 12:47:21 GMT 55.739731 -5.714222 29,925 37 390 -1664
2019-01-14 12:47:16 GMT 55.732201 -5.724134 30,025 37 391 -1600
2019-01-14 12:47:13 GMT 55.728615 -5.727911 30,325 37 392 -1536
2019-01-14 12:47:10 GMT 55.724148 -5.735807 30,200 37 393 -1536
2019-01-14 12:47:07 GMT 55.718327 -5.743532 30,325 37 394 -1472
2019-01-14 12:47:03 GMT 55.712952 -5.749428 30,400 37 395 -1472
2019-01-14 12:47:00 GMT 55.709064 -5.755548 30,475 37 395 -1472
2019-01-14 12:46:57 GMT 55.704529 -5.761330 30,575 37 397 -1536
2019-01-14 12:46:54 GMT 55.699219 -5.769404 30,650 37 398 -1536
2019-01-14 12:46:50 GMT 55.695190 -5.773399 30,725 37 400 -1472
2019-01-14 12:46:46 GMT 55.689423 -5.781305 30,800 37 400 -1472
2019-01-14 12:46:43 GMT 55.684479 -5.789296 30,900 37 402 -1472
2019-01-14 12:46:40 GMT 55.679131 -5.795374 31,000 37 404 -1664
2019-01-14 12:46:37 GMT 55.674866 -5.801364 31,025 37 406 -1472
2019-01-14 12:46:33 GMT 55.669556 -5.809437 31,175 37 405 -1472
2019-01-14 12:46:30 GMT 55.665756 -5.813515 31,225 37 406 -1472
2019-01-14 12:46:26 GMT 55.654816 -5.829745 31,400 37 407 -1600
2019-01-14 12:46:23 GMT 55.654816 -5.829745 31,450 37 409 -1728
2019-01-14 12:46:20 GMT 55.645889 -5.841897 31,500 37 407 -1728
2019-01-14 12:46:17 GMT 55.645889 -5.841897 31,600 37 408 -1792
2019-01-14 12:46:14 GMT 55.641235 -5.848074 31,675 37 408 -1728
2019-01-14 12:46:11 GMT 55.635605 -5.856142 31,825 37 408 -1728
2019-01-14 12:46:08 GMT 55.631695 -5.860262 31,875 37 408 -1728
2019-01-14 12:46:04 GMT 55.626015 -5.868416 31,925 37 408 -1728
2019-01-14 12:46:01 GMT 55.621536 -5.874523 32,075 37 409 -1728
2019-01-14 12:45:58 GMT 55.616982 -5.880690 32,150 37 409 -1728
2019-01-14 12:45:55 GMT 55.612427 -5.886674 32,250 37 410 -1728
2019-01-14 12:45:51 GMT 55.606796 -5.894831 32,350 37 410 -1664
2019-01-14 12:45:45 GMT 55.598099 -5.906899 32,500 36 410 -1600
2019-01-14 12:45:42 GMT 55.592777 -5.912962 32,650 36 411 -1664
2019-01-14 12:45:39 GMT 55.588074 -5.919051 32,675 36 411 -1664
2019-01-14 12:45:35 GMT 55.582626 -5.927124 32,725 36 411 -1664
2019-01-14 12:45:32 GMT 55.576767 -5.935114 32,900 36 416 -1472
2019-01-14 12:45:29 GMT 55.573837 -5.939192 32,950 36 413 -1536
2019-01-14 12:45:25 GMT 55.559303 -5.957336 33,100 36 413 -1536
2019-01-14 12:45:21 GMT 55.559303 -5.957336 33,200 36 413 -1536
2019-01-14 12:45:18 GMT 55.556976 -5.961285 33,225 36 413 -1472
2019-01-14 12:45:15 GMT 55.551361 -5.967324 33,325 36 414 -1472
2019-01-14 12:45:12 GMT 55.545319 -5.975397 33,425 36 415 -1472
2019-01-14 12:45:09 GMT 55.542526 -5.979476 33,425 36 415 -1472
2019-01-14 12:45:06 GMT 55.538124 -5.985403 33,550 36 416 -1472
2019-01-14 12:45:02 GMT 55.531048 -5.993557 33,650 36 417 -1536
2019-01-14 12:44:59 GMT 55.526962 -5.999451 33,700 36 416 -1600
2019-01-14 12:44:55 GMT 55.519642 -6.009521 33,825 36 418 -1536
2019-01-14 12:44:51 GMT 55.514511 -6.015514 33,875 36 418 -1472
2019-01-14 12:44:48 GMT 55.509773 -6.021624 33,975 35 419 -1280
2019-01-14 12:44:44 GMT 55.504093 -6.029434 34,075 35 420 -1216
2019-01-14 12:44:41 GMT 55.499130 -6.035489 34,100 35 420 -1216
2019-01-14 12:44:38 GMT 55.494316 -6.041451 34,150 35 421 -1216
2019-01-14 12:44:34 GMT 55.488266 -6.049519 34,275 35 422 -1280
2019-01-14 12:44:31 GMT 55.483246 -6.055464 34,350 35 423 -1408
2019-01-14 12:44:27 GMT 55.477791 -6.061535 34,425 35 424 -1600
2019-01-14 12:44:22 GMT 55.468899 -6.073637 34,625 35 425 -1536
2019-01-14 12:44:19 GMT 55.463379 -6.079767 34,675 35 427 -1472
2019-01-14 12:44:15 GMT 55.457840 -6.087841 34,850 35 427 -1472
2019-01-14 12:44:12 GMT 55.452282 -6.093807 34,875 35 428 -1536
2019-01-14 12:44:09 GMT 55.448456 -6.099909 34,925 35 428 -1536
2019-01-14 12:44:06 GMT 55.443344 -6.106151 35,000 35 429 -1472
2019-01-14 12:44:03 GMT 55.438339 -6.112114 35,050 35 431 -1472
2019-01-14 12:43:59 GMT 55.430923 -6.120435 35,150 35 431 -1472
2019-01-14 12:43:56 GMT 55.428040 -6.124555 35,300 36 433 -1472
2019-01-14 12:43:53 GMT 55.422226 -6.132875 35,300 36 433 -1472
2019-01-14 12:43:49 GMT 55.415588 -6.141196 35,525 36 435 -1408
2019-01-14 12:43:46 GMT 55.410805 -6.147433 35,500 36 435 -1408
2019-01-14 12:43:41 GMT 55.402954 -6.158079 35,650 36 437 -1344
2019-01-14 12:43:38 GMT 55.397861 -6.164412 36,550 36 437 -1344
2019-01-14 12:43:35 GMT 55.393860 -6.168574 35,750 37 438 -1344
2019-01-14 12:43:31 GMT 55.386292 -6.179325 35,875 37 441 -1280
2019-01-14 12:43:28 GMT 55.382126 -6.185969 35,875 37 441 -1280
2019-01-14 12:43:25 GMT 55.377457 -6.192492 36,075 37 444 -1792
2019-01-14 12:43:22 GMT 55.371979 -6.198952 36,050 37 444 -1536
2019-01-14 12:43:18 GMT 55.364994 -6.207775 36,175 37 444 -1728
2019-01-14 12:43:15 GMT 55.360977 -6.214384 36,225 37 445 -1856
2019-01-14 12:43:12 GMT 55.355686 -6.221092 36,325 37 444 -1920
2019-01-14 12:43:08 GMT 55.349121 -6.229831 36,500 37 445 -1984
2019-01-14 12:43:05 GMT 55.344040 -6.236438 36,650 36 443 -1920
2019-01-14 12:43:02 GMT 55.337769 -6.245243 36,700 36 444 -1920
2019-01-14 12:42:58 GMT 55.331497 -6.253563 36,825 35 443 -1792
2019-01-14 12:42:55 GMT 55.328064 -6.257926 36,925 34 441 -1664
2019-01-14 12:42:52 GMT 55.323051 -6.264038 36,975 34 440 -1664
2019-01-14 12:42:49 GMT 55.317719 -6.269801 37,075 33 440 -1600
2019-01-14 12:42:46 GMT 55.312298 -6.275357 37,100 31 439 -1664
2019-01-14 12:42:42 GMT 55.305687 -6.282432 37,275 27 433 -1856
2019-01-14 12:42:39 GMT 55.300461 -6.287088 37,350 26 432 -1792
2019-01-14 12:42:36 GMT 55.293640 -6.292904 37,525 23 428 -1856
2019-01-14 12:42:32 GMT 55.286976 -6.296831 37,575 21 425 -1664
2019-01-14 12:42:29 GMT 55.282608 -6.300498 37,775 19 424 -1536
2019-01-14 12:42:26 GMT 55.271255 -6.306637 37,800 14 418 -1024
2019-01-14 12:42:20 GMT 55.265049 -6.309232 37,875 12 416 -832
2019-01-14 12:42:17 GMT 55.259399 -6.311484 37,875 12 416 -832
2019-01-14 12:42:14 GMT 55.254528 -6.313310 37,925 10 414 -576
2019-01-14 12:42:11 GMT 55.248734 -6.314796 37,975 7 411 -384
2019-01-14 12:42:07 GMT 55.240494 -6.316169 38,000 4 408 -192
2019-01-14 12:42:04 GMT 55.229599 -6.317219 38,000 1 405 0
2019-01-14 12:42:01 GMT 55.229599 -6.317219 38,000 0 404 0
2019-01-14 12:41:57 GMT 55.217926 -6.316735 38,000 357 398 -64
2019-01-14 12:41:51 GMT 55.210968 -6.315604 38,000 354 396 0
2019-01-14 12:41:47 GMT 55.204102 -6.313907 38,000 351 393 0
2019-01-14 12:41:44 GMT 55.198757 -6.312145 38,000 350 391 0
2019-01-14 12:41:40 GMT 55.192520 -6.310111 38,000 346 388 0
2019-01-14 12:41:37 GMT 55.185745 -6.306879 38,000 339 382 0
2019-01-14 12:41:34 GMT 55.174782 -6.299660 38,000 341 383 0
2019-01-14 12:41:30 GMT 55.174782 -6.299660 38,000 339 382 0
2019-01-14 12:41:27 GMT 55.169907 -6.296055 38,000 336 379 0
2019-01-14 12:41:24 GMT 55.160065 -6.287976 38,000 331 376 0
2019-01-14 12:41:21 GMT 55.160065 -6.287976 38,000 331 376 0
2019-01-14 12:41:18 GMT 55.156254 -6.283431 38,000 329 374 0
2019-01-14 12:41:15 GMT 55.151276 -6.278687 38,000 327 373 0
2019-01-14 12:41:11 GMT 55.144058 -6.270114 38,000 324 371 0
2019-01-14 12:41:08 GMT 55.140656 -6.264630 38,000 322 369 -64
2019-01-14 12:41:05 GMT 55.137451 -6.260834 38,000 318 368 0
2019-01-14 12:41:02 GMT 55.134247 -6.257037 38,000 319 368 0
2019-01-14 12:40:59 GMT 55.129898 -6.248878 38,000 318 368 0
2019-01-14 12:40:56 GMT 55.126183 -6.242731 38,000 314 366 0
2019-01-14 12:40:49 GMT 55.117767 -6.227794 38,000 314 365 -64
2019-01-14 12:40:45 GMT 55.113052 -6.219312 38,000 314 365 0
2019-01-14 12:40:38 GMT 55.105820 -6.206306 38,025 314 365 0
2019-01-14 12:40:35 GMT 55.100811 -6.195706 38,000 314 363 0
2019-01-14 12:40:30 GMT 55.096203 -6.187134 38,000 314 364 0
2019-01-14 12:40:27 GMT 55.091827 -6.178644 36,000 314 363 0
2019-01-14 12:40:24 GMT 55.088848 -6.174316 38,000 314 364 0
2019-01-14 12:40:20 GMT 55.084286 -6.165744 38,025 314 364 0
2019-01-14 12:40:17 GMT 55.077305 -6.153010 38,000 314 363 64
2019-01-14 12:40:14 GMT 55.077305 -6.153010 38,000 314 363 0
2019-01-14 12:40:10 GMT 55.071671 -6.142327 38,000 314 363 0
2019-01-14 12:40:07 GMT 55.069244 -6.138126 38,000 314 363 0
2019-01-14 12:40:04 GMT 55.065758 -6.131703 38,000 314 363 0
2019-01-14 12:40:00 GMT 55.060547 -6.121000 38,000 314 363 0
2019-01-14 12:39:57 GMT 55.057755 -6.116800 38,000 314 363 0
2019-01-14 12:39:54 GMT 55.053841 -6.110313 38,000 314 363 0
2019-01-14 12:39:49 GMT 55.048462 -6.099836 38,000 314 363 0
2019-01-14 12:39:45 GMT 55.043701 -6.091192 38,000 314 363 0
2019-01-14 12:39:42 GMT 55.040154 -6.084928 38,000 314 363 0
2019-01-14 12:39:38 GMT 55.036198 -6.076355 38,000 314 363 0
2019-01-14 12:39:35 GMT 55.032669 -6.070108 38,000 314 363 0
2019-01-14 12:39:32 GMT 55.028610 -6.063787 38,000 314 363 0
2019-01-14 12:39:29 GMT 55.025299 -6.057264 38,000 314 362 0
2019-01-14 12:39:26 GMT 55.021454 -6.048943 38,000 314 362 0
2019-01-14 12:39:23 GMT 55.013718 -6.036179 38,000 314 363 0
2019-01-14 12:39:19 GMT 55.013718 -6.036179 38,000 314 362 0
2019-01-14 12:39:16 GMT 55.010872 -6.029830 38,000 314 362 0
2019-01-14 12:39:13 GMT 55.006531 -6.023335 38,000 314 363 0
2019-01-14 12:39:07 GMT 55.000912 -6.012767 38,000 314 363 -64
2019-01-14 12:39:04 GMT 54.996395 -6.004444 38,000 314 363 0
2019-01-14 12:39:01 GMT 54.993210 -5.997970 38,000 314 363 0
2019-01-14 12:38:58 GMT 54.989784 -5.991710 38,000 314 362 0
2019-01-14 12:38:54 GMT 54.984898 -5.983054 38,000 314 363 0
2019-01-14 12:38:51 GMT 54.981995 -5.976805 38,000 314 363 0
2019-01-14 12:38:47 GMT 54.977867 -5.970570 38,000 314 362 0
2019-01-14 12:38:43 GMT 54.972794 -5.959760 38,000 314 362 0
2019-01-14 12:38:40 GMT 54.968929 -5.953508 38,000 314 362 0
2019-01-14 12:38:37 GMT 54.966019 -5.947077 38,000 314 362 0
2019-01-14 12:38:34 GMT 54.962460 -5.940774 38,000 314 362 0
2019-01-14 12:38:31 GMT 54.958832 -5.934556 38,000 314 364 0
2019-01-14 12:38:27 GMT 54.953888 -5.925912 38,000 314 364 0
2019-01-14 12:38:23 GMT 54.946117 -5.911310 38,000 314 364 0
2019-01-14 12:38:20 GMT 54.946117 -5.911310 38,000 314 364 0
2019-01-14 12:38:17 GMT 54.941742 -5.902738 38,000 314 364 0
2019-01-14 12:38:13 GMT 54.937683 -5.896346 38,000 314 364 0
2019-01-14 12:38:10 GMT 54.934387 -5.890087 38,000 314 364 0
2019-01-14 12:38:06 GMT 54.929638 -5.881514 38,000 314 364 0
2019-01-14 12:38:03 GMT 54.926285 -5.875181 38,000 314 364 0
2019-01-14 12:38:00 GMT 54.922794 -5.868780 38,000 314 364 0
2019-01-14 12:37:56 GMT 54.914658 -5.854097 38,000 314 364 0
2019-01-14 12:37:53 GMT 54.914658 -5.854097 38,000 314 364 0
2019-01-14 12:37:50 GMT 54.911160 -5.847806 38,000 314 364 0
2019-01-14 12:37:44 GMT 54.904907 -5.837214 38,000 314 364 0
2019-01-14 12:37:41 GMT 54.897720 -5.824370 38,000 314 362 0
2019-01-14 12:37:34 GMT 54.892677 -5.813848 38,000 314 363 0
2019-01-14 12:37:31 GMT 54.888252 -5.805442 38,000 314 363 0
2019-01-14 12:37:25 GMT 54.883041 -5.796953 38,000 314 363 0
2019-01-14 12:37:22 GMT 54.878803 -5.788630 38,000 314 363 0
2019-01-14 12:37:19 GMT 54.867920 -5.769680 38,000 314 363 0
2019-01-14 12:37:14 GMT 54.867920 -5.769680 38,000 314 363 0
2019-01-14 12:37:11 GMT 54.865677 -5.765399 38,000 314 363 0
2019-01-14 12:37:08 GMT 54.862186 -5.759083 38,000 314 363 0
2019-01-14 12:37:04 GMT 54.856705 -5.748596 38,000 314 362 0
2019-01-14 12:37:00 GMT 54.852875 -5.742271 38,000 314 362 0
2019-01-14 12:36:56 GMT 54.847641 -5.731713 38,000 314 362 0
2019-01-14 12:36:53 GMT 54.840500 -5.719192 38,000 314 362 0
2019-01-14 12:36:50 GMT 54.840500 -5.719192 38,000 314 362 0
2019-01-14 12:36:47 GMT 54.838303 -5.714991 38,000 314 362 0
2019-01-14 12:36:44 GMT 54.833817 -5.706670 38,000 314 362 0
2019-01-14 12:36:41 GMT 54.831207 -5.702389 38,000 314 362 0
2019-01-14 12:36:38 GMT 54.823929 -5.689787 38,000 314 362 0
2019-01-14 12:36:35 GMT 54.823929 -5.689787 38,000 314 362 0
2019-01-14 12:36:32 GMT 54.820053 -5.683427 38,000 314 362 0
2019-01-14 12:36:29 GMT 54.817108 -5.677266 38,000 314 362 0
2019-01-14 12:36:26 GMT 54.811768 -5.666698 38,000 314 362 0
2019-01-14 12:36:23 GMT 54.809921 -5.664664 38,000 314 362 0
2019-01-14 12:36:20 GMT 54.806183 -5.658375 38,000 314 362 0
2019-01-14 12:36:17 GMT 54.802551 -5.650052 38,000 314 360 0
2019-01-14 12:36:14 GMT 54.796005 -5.639622 38,000 314 362 0
2019-01-14 12:36:11 GMT 54.796005 -5.639622 38,000 314 362 0
2019-01-14 12:36:08 GMT 54.792870 -5.633323 38,000 314 361 0
2019-01-14 12:36:04 GMT 54.788353 -5.624917 38,000 314 361 0
2019-01-14 12:36:01 GMT 54.784424 -5.618618 38,000 314 361 0
2019-01-14 12:35:57 GMT 54.776855 -5.604026 38,000 314 361 0
2019-01-14 12:35:54 GMT 54.776855 -5.604026 38,000 314 361 0
2019-01-14 12:35:51 GMT 54.773968 -5.599948 38,000 314 360 0
2019-01-14 12:35:48 GMT 54.770416 -5.593657 38,000 314 360 0
2019-01-14 12:35:45 GMT 54.763458 -5.581055 38,000 314 360 0
2019-01-14 12:35:42 GMT 54.763458 -5.581055 38,000 314 359 0
2019-01-14 12:35:39 GMT 54.758972 -5.572815 38,000 314 360 0
2019-01-14 12:35:35 GMT 54.755035 -5.564414 38,000 314 360 0
2019-01-14 12:35:32 GMT 54.751438 -5.558333 38,000 314 360 0
2019-01-14 12:35:29 GMT 54.747108 -5.549927 38,000 314 360 0
2019-01-14 12:35:26 GMT 54.745193 -5.547853 38,000 314 360 0
2019-01-14 12:35:23 GMT 54.741074 -5.539694 38,000 314 359 0
2019-01-14 12:35:19 GMT 54.736267 -5.531455 38,000 314 359 0
2019-01-14 12:35:16 GMT 54.729309 -5.518933 38,000 314 359 0
2019-01-14 12:35:13 GMT 54.729309 -5.518933 38,000 314 359 0
2019-01-14 12:35:10 GMT 54.726021 -5.512723 38,000 314 359 0
2019-01-14 12:35:06 GMT 54.720852 -5.504483 38,000 314 359 0
2019-01-14 12:35:03 GMT 54.717865 -5.498334 38,000 314 359 0
2019-01-14 12:34:59 GMT 54.713242 -5.490014 38,000 314 359 0
2019-01-14 12:34:56 GMT 54.709492 -5.483926 38,000 314 359 0
2019-01-14 12:34:53 GMT 54.706604 -5.477654 38,000 314 359 0
2019-01-14 12:34:50 GMT 54.703346 -5.471358 38,000 314 359 0
2019-01-14 12:34:47 GMT 54.696178 -5.458957 38,000 314 359 0
2019-01-14 12:34:44 GMT 54.696178 -5.458957 38,000 314 360 0
2019-01-14 12:34:41 GMT 54.692780 -5.452854 38,000 314 360 0
2019-01-14 12:34:38 GMT 54.688965 -5.446555 38,000 314 360 0
2019-01-14 12:34:34 GMT 54.684357 -5.438232 38,000 314 360 0
2019-01-14 12:34:31 GMT 54.681335 -5.432012 38,000 314 360 0
2019-01-14 12:34:27 GMT 54.676392 -5.423772 38,000 314 360 -64
2019-01-14 12:34:24 GMT 54.668976 -5.411251 38,000 314 360 0
2019-01-14 12:34:21 GMT 54.668976 -5.411251 38,000 314 360 0
2019-01-14 12:34:17 GMT 54.664810 -5.403092 38,000 314 360 0
2019-01-14 12:34:14 GMT 54.661266 -5.396701 38,000 314 360 -64
2019-01-14 12:34:11 GMT 54.658081 -5.390571 38,000 314 359 0
2019-01-14 12:34:08 GMT 54.653229 -5.382412 38,000 314 359 0
2019-01-14 12:34:05 GMT 54.651630 -5.380221 38,000 314 359 0
2019-01-14 12:34:02 GMT 54.647205 -5.371982 38,000 315 360 0
2019-01-14 12:33:59 GMT 54.642971 -5.363825 38,000 315 360 0
2019-01-14 12:33:56 GMT 54.640736 -5.359580 38,000 315 360 0
2019-01-14 12:33:52 GMT 54.635616 -5.351257 38,000 314 360 0
2019-01-14 12:33:49 GMT 54.629284 -5.338939 38,000 314 360 0
2019-01-14 12:33:46 GMT 54.629284 -5.338939 38,000 314 360 0
2019-01-14 12:33:42 GMT 54.623978 -5.330616 38,000 314 359 0
2019-01-14 12:33:36 GMT 54.617691 -5.318382 38,000 314 359 -64
2019-01-14 12:33:32 GMT 54.612991 -5.309975 38,000 315 360 0
2019-01-14 12:33:29 GMT 54.608521 -5.301819 38,000 315 360 -64
2019-01-14 12:33:26 GMT 54.605591 -5.297574 38,000 315 360 0
2019-01-14 12:33:21 GMT 54.600174 -5.287332 38,000 315 360 0
2019-01-14 12:33:18 GMT 54.595779 -5.279092 38,000 315 360 0
2019-01-14 12:33:15 GMT 54.590286 -5.271014 38,000 315 360 0
2019-01-14 12:33:09 GMT 54.586166 -5.262532 38,000 315 360 0
2019-01-14 12:33:06 GMT 54.581955 -5.254454 38,000 315 360 0
2019-01-14 12:33:03 GMT 54.579254 -5.250253 38,000 315 360 64
2019-01-14 12:33:00 GMT 54.574722 -5.242013 38,000 315 360 -64
2019-01-14 12:32:57 GMT 54.572342 -5.238055 38,000 315 360 0
2019-01-14 12:32:54 GMT 54.568813 -5.231739 38,000 315 360 -64
2019-01-14 12:32:51 GMT 54.565338 -5.225534 38,000 315 360 -64
2019-01-14 12:32:48 GMT 54.562202 -5.219421 38,000 315 360 -64
2019-01-14 12:32:45 GMT 54.553032 -5.202859 38,000 315 360 -64
2019-01-14 12:32:41 GMT 54.553032 -5.202859 38,000 315 360 -64
2019-01-14 12:32:38 GMT 54.550098 -5.198947 38,000 315 360 -64
2019-01-14 12:32:35 GMT 54.544693 -5.188536 38,000 315 359 0
2019-01-14 12:32:31 GMT 54.542542 -5.184497 38,000 314 359 -64
2019-01-14 12:32:28 GMT 54.539200 -5.180377 38,025 314 359 0
2019-01-14 12:32:25 GMT 54.534363 -5.170066 38,025 315 359 0
2019-01-14 12:32:22 GMT 54.530365 -5.163897 38,025 315 359 0
2019-01-14 12:32:19 GMT 54.528259 -5.159858 38,025 315 359 0
2019-01-14 12:32:15 GMT 54.523224 -5.151538 38,000 315 359 64
2019-01-14 12:32:12 GMT 54.519150 -5.143540 38,000 315 359 64
2019-01-14 12:32:09 GMT 54.512512 -5.133119 38,000 315 359 64
2019-01-14 12:32:06 GMT 54.512512 -5.133119 38,000 315 359 64
2019-01-14 12:32:03 GMT 54.509995 -5.127142 38,000 315 359 64
2019-01-14 12:32:00 GMT 54.505733 -5.120961 38,000 315 359 0
2019-01-14 12:31:57 GMT 54.502899 -5.114701 38,000 315 359 0
2019-01-14 12:31:54 GMT 54.499168 -5.108726 38,000 315 359 0
2019-01-14 12:31:51 GMT 54.495529 -5.102503 38,000 315 359 0
2019-01-14 12:31:48 GMT 54.492561 -5.096408 38,000 315 359 0
2019-01-14 12:31:45 GMT 54.488136 -5.088168 38,000 315 359 0
2019-01-14 12:31:42 GMT 54.484406 -5.082065 38,000 315 359 0
2019-01-14 12:31:39 GMT 54.481064 -5.075850 38,000 315 359 0
2019-01-14 12:31:34 GMT 54.476406 -5.067860 36,000 315 357 64
2019-01-14 12:31:31 GMT 54.471130 -5.061708 38,000 315 359 0
2019-01-14 12:31:27 GMT 54.468292 -5.053549 38,000 315 359 0
2019-01-14 12:31:24 GMT 54.464211 -5.047469 38,000 315 359 0
2019-01-14 12:31:21 GMT 54.460876 -5.041351 38,000 315 359 0
2019-01-14 12:31:18 GMT 54.456802 -5.033112 38,000 315 359 0
2019-01-14 12:31:15 GMT 54.451355 -5.024953 38,000 315 359 0
2019-01-14 12:31:08 GMT 54.446007 -5.014676 38,000 315 359 0
2019-01-14 12:31:05 GMT 54.442566 -5.008635 38,000 315 359 0
2019-01-14 12:31:02 GMT 54.439072 -5.002525 38,000 315 359 0
2019-01-14 12:30:58 GMT 54.431030 -4.988116 38,000 315 359 0
2019-01-14 12:30:55 GMT 54.431030 -4.988116 38,000 315 359 0
2019-01-14 12:30:52 GMT 54.426544 -4.980038 38,000 315 360 0
2019-01-14 12:30:49 GMT 54.424118 -4.975999 38,000 315 360 0
2019-01-14 12:30:46 GMT 54.419357 -4.967840 38,000 315 360 0
2019-01-14 12:30:43 GMT 54.413326 -4.957664 38,000 315 360 -64
2019-01-14 12:30:40 GMT 54.413326 -4.957664 38,000 315 360 -64
2019-01-14 12:30:37 GMT 54.410339 -4.951360 38,000 315 360 0
2019-01-14 12:30:34 GMT 54.405212 -4.943201 38,000 315 360 -64
2019-01-14 12:30:30 GMT 54.401829 -4.937189 38,000 315 360 -64
2019-01-14 12:30:27 GMT 54.398666 -4.931003 38,000 315 360 -64
2019-01-14 12:30:23 GMT 54.393631 -4.922764 38,000 315 359 0
2019-01-14 12:30:20 GMT 54.390240 -4.916632 38,000 315 359 0
2019-01-14 12:30:17 GMT 54.386719 -4.910646 38,000 315 359 0
2019-01-14 12:30:14 GMT 54.383163 -4.904646 38,000 315 359 -64
2019-01-14 12:30:11 GMT 54.379715 -4.898367 38,000 315 359 0
2019-01-14 12:30:08 GMT 54.375412 -4.890451 38,000 315 359 0
2019-01-14 12:30:05 GMT 54.372437 -4.886169 38,000 315 357 0
2019-01-14 12:30:02 GMT 54.369568 -4.880177 38,000 315 357 0
2019-01-14 12:29:59 GMT 54.365936 -4.874133 38,000 315 357 0
2019-01-14 12:29:56 GMT 54.362869 -4.870094 38,000 315 357 0
2019-01-14 12:29:53 GMT 54.358566 -4.862096 38,000 315 356 0
2019-01-14 12:29:49 GMT 54.354355 -4.853937 38,000 315 357 64
2019-01-14 12:29:45 GMT 54.349503 -4.845859 38,000 315 357 0
2019-01-14 12:29:42 GMT 54.346527 -4.839810 38,000 315 357 0
2019-01-14 12:29:39 GMT 54.343002 -4.833661 38,000 315 357 0
2019-01-14 12:29:36 GMT 54.339123 -4.827742 38,000 315 357 0
2019-01-14 12:29:33 GMT 54.336750 -4.823747 38,000 315 356 0
2019-01-14 12:29:30 GMT 54.332607 -4.815674 38,000 315 356 0
2019-01-14 12:29:27 GMT 54.328182 -4.807517 38,000 315 355 0
2019-01-14 12:29:24 GMT 54.324600 -4.801429 38,000 315 355 -64
2019-01-14 12:29:21 GMT 54.321671 -4.797552 38,000 315 355 -64
2019-01-14 12:29:18 GMT 54.319427 -4.793432 38,000 315 355 0
2019-01-14 12:29:15 GMT 54.314896 -4.785515 38,000 315 355 0
2019-01-14 12:29:11 GMT 54.309238 -4.775391 38,000 315 355 0
2019-01-14 12:29:08 GMT 54.306816 -4.771396 38,000 315 355 0
2019-01-14 12:29:05 GMT 54.303864 -4.765401 38,000 315 355 0
2019-01-14 12:29:02 GMT 54.299881 -4.759494 38,000 315 355 0
2019-01-14 12:28:59 GMT 54.296860 -4.753445 38,000 315 354 0
2019-01-14 12:28:56 GMT 54.292282 -4.745447 38,000 315 354 0
2019-01-14 12:28:53 GMT 54.289902 -4.741408 38,000 315 354 0
2019-01-14 12:28:50 GMT 54.286427 -4.735357 38,000 315 354 0
2019-01-14 12:28:47 GMT 54.283539 -4.731362 38,000 315 354 0
2019-01-14 12:28:44 GMT 54.279770 -4.723455 38,000 315 354 0
2019-01-14 12:28:41 GMT 54.276123 -4.717294 38,000 315 355 0
2019-01-14 12:28:37 GMT 54.270950 -4.709290 38,000 315 356 0
2019-01-14 12:28:34 GMT 54.264359 -4.697283 38,000 315 356 0
2019-01-14 12:28:31 GMT 54.264359 -4.697283 38,000 315 356 0
2019-01-14 12:28:28 GMT 54.261383 -4.691243 38,000 315 357 64
2019-01-14 12:28:24 GMT 54.256943 -4.685355 38,000 315 356 0
2019-01-14 12:28:20 GMT 54.252365 -4.677194 38,000 315 357 0
2019-01-14 12:28:17 GMT 54.244205 -4.663212 38,000 315 357 64
2019-01-14 12:28:14 GMT 54.244205 -4.663212 38,000 315 357 64
2019-01-14 12:28:11 GMT 54.240829 -4.657104 38,000 315 357 64
2019-01-14 12:28:07 GMT 54.237129 -4.651094 38,000 315 359 -128
2019-01-14 12:28:04 GMT 54.228329 -4.635019 38,000 315 359 0
2019-01-14 12:28:01 GMT 54.228329 -4.635019 38,000 315 358 192
2019-01-14 12:27:58 GMT 54.225910 -4.630899 37,900 315 357 1344
2019-01-14 12:27:55 GMT 54.221859 -4.622982 38,000 315 358 256
2019-01-14 12:27:52 GMT 54.218784 -4.618862 37,975 315 357 576
2019-01-14 12:27:49 GMT 54.216366 -4.614823 37,950 315 357 768
2019-01-14 12:27:46 GMT 54.211479 -4.606745 37,925 315 357 832
2019-01-14 12:27:43 GMT 54.208969 -4.600839 37,800 315 357 1152
2019-01-14 12:27:39 GMT 54.204300 -4.592756 37,725 315 357 1216
2019-01-14 12:27:36 GMT 54.199860 -4.584830 37,675 315 357 1344
2019-01-14 12:27:33 GMT 54.197525 -4.580828 37,275 315 358 1344
2019-01-14 12:27:30 GMT 54.193417 -4.574675 37,550 315 357 1344
2019-01-14 12:27:27 GMT 54.190716 -4.570636 37,500 315 358 1344
2019-01-14 12:27:24 GMT 54.185944 -4.560660 37,400 315 358 1280
2019-01-14 12:27:21 GMT 54.183151 -4.556658 37,350 315 359 1344
2019-01-14 12:27:18 GMT 54.179634 -4.550602 37,275 315 358 1344
2019-01-14 12:27:15 GMT 54.176010 -4.544573 37,200 315 358 1344
2019-01-14 12:27:12 GMT 54.171478 -4.536490 37,125 315 359 1344
2019-01-14 12:27:09 GMT 54.164474 -4.524327 36,900 315 359 1344
2019-01-14 12:27:06 GMT 54.164474 -4.524327 36,925 315 359 1344
2019-01-14 12:27:03 GMT 54.159943 -4.516323 36,900 315 359 1344
2019-01-14 12:27:00 GMT 54.158642 -4.514331 36,875 315 359 1344
2019-01-14 12:26:57 GMT 54.149376 -4.498255 36,775 315 359 1152
2019-01-14 12:26:53 GMT 54.149376 -4.498255 36,700 315 359 1152
2019-01-14 12:26:50 GMT 54.145660 -4.492231 36,625 315 359 1280
2019-01-14 12:26:47 GMT 54.142117 -4.486138 36,575 315 359 1344
2019-01-14 12:26:43 GMT 54.138474 -4.480068 36,450 315 359 1472
2019-01-14 12:26:40 GMT 54.135410 -4.474021 36,475 315 359 1408
2019-01-14 12:26:37 GMT 54.130524 -4.466023 36,350 315 359 1600
2019-01-14 12:26:33 GMT 54.126846 -4.460057 36,300 315 360 1664
2019-01-14 12:26:30 GMT 54.123867 -4.453987 36,150 315 360 1600
2019-01-14 12:26:27 GMT 54.119705 -4.448050 36,100 315 360 1600
2019-01-14 12:26:23 GMT 54.114231 -4.437911 35,975 315 360 1408
2019-01-14 12:26:20 GMT 54.111855 -4.433872 35,900 315 360 1408
2019-01-14 12:26:14 GMT 54.105061 -4.421836 35,775 315 360 1408
2019-01-14 12:26:11 GMT 54.101303 -4.415798 35,725 315 360 1344
2019-01-14 12:26:08 GMT 54.094437 -4.403556 35,600 315 359 1280
2019-01-14 12:26:05 GMT 54.094437 -4.403556 35,425 315 358 1152
2019-01-14 12:26:01 GMT 54.088627 -4.393643 35,475 315 359 1152
2019-01-14 12:25:58 GMT 54.086159 -4.389604 35,325 315 356 1088
2019-01-14 12:25:55 GMT 54.082718 -4.383702 35,400 315 358 1088
2019-01-14 12:25:52 GMT 54.079411 -4.377567 35,275 315 357 1088
2019-01-14 12:25:49 GMT 54.076057 -4.373609 35,250 315 356 1088
2019-01-14 12:25:46 GMT 54.071404 -4.365692 35,200 315 357 1088
2019-01-14 12:25:43 GMT 54.067722 -4.357776 35,150 315 354 1280
2019-01-14 12:25:40 GMT 54.065304 -4.353898 35,000 315 355 1088
2019-01-14 12:25:37 GMT 54.062092 -4.349778 34,750 315 354 1536
2019-01-14 12:25:34 GMT 54.059052 -4.343759 35,000 315 355 1152
2019-01-14 12:25:31 GMT 54.051247 -4.330067 34,875 315 354 1408
2019-01-14 12:25:28 GMT 54.047607 -4.324140 34,825 315 354 1536
2019-01-14 12:25:25 GMT 54.047607 -4.324140 34,300 315 354 1664
2019-01-14 12:25:22 GMT 54.043518 -4.318112 34,725 315 354 1664
2019-01-14 12:25:18 GMT 54.038406 -4.308446 34,550 316 355 1664
2019-01-14 12:25:15 GMT 54.034859 -4.302440 34,450 316 355 1728
2019-01-14 12:25:11 GMT 54.030807 -4.296596 34,325 315 356 1792
2019-01-14 12:25:08 GMT 54.024944 -4.286607 34,225 315 356 1920
2019-01-14 12:25:05 GMT 54.024944 -4.286607 34,125 315 356 1920
2019-01-14 12:25:01 GMT 54.016235 -4.270773 33,950 315 358 1728
2019-01-14 12:24:58 GMT 54.016235 -4.270773 33,925 315 358 1600
2019-01-14 12:24:55 GMT 54.012772 -4.264814 33,650 315 359 1664
2019-01-14 12:24:51 GMT 54.008057 -4.256810 33,725 315 359 1664
2019-01-14 12:24:48 GMT 54.004505 -4.250659 33,500 315 359 1728
2019-01-14 12:24:45 GMT 54.000504 -4.244725 33,575 315 360 1728
2019-01-14 12:24:42 GMT 53.997990 -4.238622 33,250 315 361 2176
2019-01-14 12:24:39 GMT 53.993958 -4.232561 33,375 315 362 2368
2019-01-14 12:24:35 GMT 53.988541 -4.222385 33,250 315 363 2496
2019-01-14 12:24:31 GMT 53.984436 -4.216160 33,000 315 365 2816
2019-01-14 12:24:28 GMT 53.980534 -4.210026 32,925 315 367 2816
2019-01-14 12:24:24 GMT 53.976341 -4.201624 32,675 315 368 2624
2019-01-14 12:24:21 GMT 53.972107 -4.193385 32,575 315 369 2432
2019-01-14 12:24:18 GMT 53.968987 -4.189184 32,500 315 371 2432
2019-01-14 12:24:15 GMT 53.965851 -4.182966 32,025 315 375 2240
2019-01-14 12:24:12 GMT 53.962784 -4.178807 31,950 315 374 2304
2019-01-14 12:24:09 GMT 53.958115 -4.170489 32,075 315 374 2304
2019-01-14 12:24:06 GMT 53.954601 -4.164061 32,025 315 374 2304
2019-01-14 12:24:03 GMT 53.950089 -4.155740 31,900 315 374 2240
2019-01-14 12:24:00 GMT 53.946487 -4.149301 31,650 315 376 2176
2019-01-14 12:23:57 GMT 53.943150 -4.143057 31,600 315 376 2240
2019-01-14 12:23:53 GMT 53.938934 -4.136745 31,450 315 376 2304
2019-01-14 12:23:50 GMT 53.933899 -4.128191 31,300 315 377 2112
2019-01-14 12:23:44 GMT 53.927975 -4.117692 31,175 315 377 1856
2019-01-14 12:23:41 GMT 53.925137 -4.113330 31,100 315 377 1728
2019-01-14 12:23:38 GMT 53.920712 -4.104928 30,975 315 377 1728
2019-01-14 12:23:35 GMT 53.917007 -4.098528 30,850 315 377 1792
2019-01-14 12:23:32 GMT 53.913868 -4.092084 30,775 315 376 1536
2019-01-14 12:23:29 GMT 53.909912 -4.085894 30,375 315 376 1664
2019-01-14 12:23:26 GMT 53.901855 -4.073024 30,575 315 376 1536
2019-01-14 12:23:23 GMT 53.901855 -4.073024 30,525 315 376 1472
2019-01-14 12:23:20 GMT 53.898552 -4.066638 30,450 315 376 1472
2019-01-14 12:23:17 GMT 53.894760 -4.060468 30,375 315 375 1408
2019-01-14 12:23:14 GMT 53.891758 -4.054197 30,300 315 375 1408
2019-01-14 12:23:11 GMT 53.887150 -4.045715 30,275 315 374 1344
2019-01-14 12:23:08 GMT 53.884495 -4.041595 30,100 315 374 1280
2019-01-14 12:23:05 GMT 53.879841 -4.033194 30,100 315 373 1344
2019-01-14 12:23:02 GMT 53.876221 -4.026882 30,025 315 373 1280
2019-01-14 12:22:59 GMT 53.874298 -4.024793 29,925 315 371 1344
2019-01-14 12:22:56 GMT 53.866425 -4.010088 29,850 317 358 1536
2019-01-14 12:22:50 GMT 53.862335 -4.003870 29,725 315 371 1344
2019-01-14 12:22:46 GMT 53.857681 -3.995550 29,675 315 369 1472
2019-01-14 12:22:43 GMT 53.853928 -3.989371 29,625 315 370 1408
2019-01-14 12:22:40 GMT 53.849579 -3.981210 29,475 315 369 1472
2019-01-14 12:22:37 GMT 53.846184 -3.974870 29,425 315 369 1472
2019-01-14 12:22:34 GMT 53.844086 -3.970831 29,350 315 369 1408
2019-01-14 12:22:31 GMT 53.839417 -3.964652 29,300 315 369 1344
2019-01-14 12:22:28 GMT 53.835617 -3.956491 29,225 315 369 1280
2019-01-14 12:22:25 GMT 53.832687 -3.952253 29,150 315 369 1280
2019-01-14 12:22:22 GMT 53.829704 -3.946111 29,125 315 368 1280
2019-01-14 12:22:19 GMT 53.825775 -3.940011 29,025 315 367 1280
2019-01-14 12:22:16 GMT 53.821976 -3.933913 28,975 315 367 1280
2019-01-14 12:22:13 GMT 53.817226 -3.925835 28,900 315 366 1280
2019-01-14 12:22:10 GMT 53.814148 -3.919765 28,850 315 365 1280
2019-01-14 12:22:07 GMT 53.809826 -3.913637 28,750 315 364 1344
2019-01-14 12:22:04 GMT 53.804489 -3.903442 28,675 316 364 1408
2019-01-14 12:21:58 GMT 53.800468 -3.897561 28,525 316 364 1472
2019-01-14 12:21:55 GMT 53.796707 -3.891593 28,475 316 364 1408
2019-01-14 12:21:51 GMT 53.791809 -3.883589 28,100 317 358 1536
2019-01-14 12:21:48 GMT 53.788506 -3.877528 28,325 316 362 1152
2019-01-14 12:21:45 GMT 53.784348 -3.871661 28,275 316 362 1088
2019-01-14 12:21:42 GMT 53.781708 -3.865895 28,175 316 360 1152
2019-01-14 12:21:39 GMT 53.777004 -3.857978 28,200 316 360 1152
2019-01-14 12:21:36 GMT 53.772629 -3.852042 28,075 317 358 1408
2019-01-14 12:21:33 GMT 53.770798 -3.848275 28,000 317 357 1472
2019-01-14 12:21:30 GMT 53.767136 -3.842307 27,925 317 358 1536
2019-01-14 12:21:27 GMT 53.764111 -3.838591 27,925 317 357 1536
2019-01-14 12:21:24 GMT 53.759735 -3.830916 26,975 308 351 1536
2019-01-14 12:21:21 GMT 53.756516 -3.824969 27,700 317 355 1472
2019-01-14 12:21:18 GMT 53.752705 -3.819203 27,675 317 356 1472
2019-01-14 12:21:15 GMT 53.748505 -3.813590 27,575 317 355 1472
2019-01-14 12:21:12 GMT 53.745304 -3.807894 27,450 317 355 1472
2019-01-14 12:21:09 GMT 53.740883 -3.800300 27,400 317 355 1536
2019-01-14 12:21:06 GMT 53.738461 -3.796503 27,325 317 354 1536
2019-01-14 12:21:03 GMT 53.733852 -3.788991 27,275 317 353 1536
2019-01-14 12:21:00 GMT 53.730732 -3.785113 27,200 317 353 1600
2019-01-14 12:20:57 GMT 53.727859 -3.779454 27,125 317 352 1600
2019-01-14 12:20:54 GMT 53.724449 -3.773561 26,975 314 352 1664
2019-01-14 12:20:51 GMT 53.720901 -3.767683 26,900 313 352 1536
2019-01-14 12:20:48 GMT 53.717560 -3.761525 26,900 313 352 1536
2019-01-14 12:20:45 GMT 53.714401 -3.755284 26,750 308 351 1536
2019-01-14 12:20:42 GMT 53.711460 -3.748761 26,750 308 351 1536
2019-01-14 12:20:39 GMT 53.708542 -3.742179 26,500 307 350 1536
2019-01-14 12:20:36 GMT 53.705223 -3.735836 26,525 307 350 1600
2019-01-14 12:20:33 GMT 53.702637 -3.729152 26,450 307 350 1600
2019-01-14 12:20:30 GMT 53.698608 -3.720520 26,400 307 348 1664
2019-01-14 12:20:27 GMT 53.693909 -3.709744 26,300 307 348 1728
2019-01-14 12:20:24 GMT 53.693909 -3.709744 26,200 307 348 1664
2019-01-14 12:20:21 GMT 53.690460 -3.703177 26,150 307 348 1472
2019-01-14 12:20:18 GMT 53.688446 -3.698626 26,100 307 347 1472
2019-01-14 12:20:15 GMT 53.684135 -3.687852 25,975 307 347 1344
2019-01-14 12:20:12 GMT 53.682274 -3.683570 25,850 307 346 1344
2019-01-14 12:20:09 GMT 53.679611 -3.677046 25,775 307 345 1472
2019-01-14 12:20:06 GMT 53.675674 -3.668335 25,800 307 345 1472
2019-01-14 12:20:03 GMT 53.673798 -3.663862 25,700 307 345 1600
2019-01-14 12:20:00 GMT 53.671005 -3.657478 25,650 307 345 1664
2019-01-14 12:19:57 GMT 53.668488 -3.650757 25,575 306 345 1664
2019-01-14 12:19:54 GMT 53.665558 -3.644230 25,475 306 344 1600
2019-01-14 12:19:51 GMT 53.661556 -3.635667 25,375 306 344 1536
2019-01-14 12:19:48 GMT 53.658829 -3.628941 25,200 306 344 1472
2019-01-14 12:19:45 GMT 53.657738 -3.626862 25,225 306 343 1472
2019-01-14 12:19:42 GMT 53.654060 -3.618137 25,125 306 342 1536
2019-01-14 12:19:39 GMT 53.651459 -3.611520 25,050 306 342 1536
2019-01-14 12:19:36 GMT 53.648243 -3.604970 24,975 306 342 1600
2019-01-14 12:19:33 GMT 53.641891 -3.589861 24,850 305 341 1728
2019-01-14 12:19:29 GMT 53.641891 -3.589861 24,800 306 342 1728
2019-01-14 12:19:26 GMT 53.638916 -3.581072 24,700 306 342 1728
2019-01-14 12:19:23 GMT 53.636536 -3.576756 24,600 305 341 1728
2019-01-14 12:19:20 GMT 53.633812 -3.570234 23,850 305 340 1600
2019-01-14 12:19:17 GMT 53.631454 -3.563651 24,050 305 341 1664
2019-01-14 12:19:14 GMT 53.625687 -3.550624 24,300 305 341 1664
2019-01-14 12:19:08 GMT 53.622871 -3.544060 24,150 305 340 1600
2019-01-14 12:19:05 GMT 53.620102 -3.537598 24,125 305 340 1664
2019-01-14 12:19:02 GMT 53.614536 -3.522411 24,000 305 339 1664
2019-01-14 12:18:59 GMT 53.614536 -3.522411 23,950 305 339 1664
2019-01-14 12:18:56 GMT 53.611816 -3.515860 23,825 305 339 1600
2019-01-14 12:18:53 GMT 53.610115 -3.513686 23,775 305 339 1536
2019-01-14 12:18:50 GMT 53.606857 -3.505123 23,650 305 338 1536
2019-01-14 12:18:47 GMT 53.603851 -3.498596 23,625 305 338 1472
2019-01-14 12:18:43 GMT 53.601059 -3.490043 23,575 305 337 1472
2019-01-14 12:18:40 GMT 53.597443 -3.481410 23,450 305 336 1472
2019-01-14 12:18:37 GMT 53.595245 -3.477094 23,375 305 336 1536
2019-01-14 12:18:34 GMT 53.592133 -3.468541 23,250 305 335 1664
2019-01-14 12:18:31 GMT 53.589073 -3.462067 23,200 305 335 1664
2019-01-14 12:18:28 GMT 53.587875 -3.459987 23,075 305 334 1536
2019-01-14 12:18:25 GMT 53.584579 -3.451433 23,075 305 334 1600
2019-01-14 12:18:22 GMT 53.581284 -3.443037 22,900 305 333 1472
2019-01-14 12:18:19 GMT 53.578949 -3.438564 22,900 305 332 1472
2019-01-14 12:18:16 GMT 53.577065 -3.432258 22,850 305 332 1536
2019-01-14 12:18:13 GMT 53.574371 -3.425851 22,800 305 332 1600
2019-01-14 12:18:10 GMT 53.568970 -3.413138 22,625 305 331 1920
2019-01-14 12:18:07 GMT 53.568970 -3.413138 22,575 305 331 1920
2019-01-14 12:18:04 GMT 53.566498 -3.406973 22,500 305 331 1984
2019-01-14 12:18:01 GMT 53.563568 -3.400582 22,375 305 330 1984
2019-01-14 12:17:58 GMT 53.560768 -3.394291 22,325 305 330 1984
2019-01-14 12:17:55 GMT 53.555511 -3.381608 22,100 305 330 1984
2019-01-14 12:17:48 GMT 53.552250 -3.373126 21,950 305 330 1856
2019-01-14 12:17:45 GMT 53.550064 -3.366917 21,875 305 329 1792
2019-01-14 12:17:42 GMT 53.547131 -3.360524 21,750 305 329 1792
2019-01-14 12:17:39 GMT 53.543594 -3.352284 21,725 305 329 1792
2019-01-14 12:17:36 GMT 53.541779 -3.348083 21,550 305 328 1792
2019-01-14 12:17:33 GMT 53.539215 -3.341727 21,525 305 328 1792
2019-01-14 12:17:30 GMT 53.536701 -3.335401 21,475 305 328 1728
2019-01-14 12:17:27 GMT 53.534134 -3.329250 21,050 306 322 1856
2019-01-14 12:17:24 GMT 53.531441 -3.322960 21,275 306 325 1664
2019-01-14 12:17:21 GMT 53.528915 -3.316772 21,200 305 324 1664
2019-01-14 12:17:18 GMT 53.523064 -3.302280 21,075 305 324 1664
2019-01-14 12:17:15 GMT 53.523064 -3.302280 20,850 306 322 1920
2019-01-14 12:17:11 GMT 53.520035 -3.296212 20,675 306 322 1920
2019-01-14 12:17:08 GMT 53.517292 -3.290082 20,800 306 322 1920
2019-01-14 12:17:05 GMT 53.514591 -3.281762 20,725 306 322 1920
2019-01-14 12:17:01 GMT 53.511429 -3.275809 20,525 305 320 1728
2019-01-14 12:16:57 GMT 53.508453 -3.267648 20,500 305 320 1728
2019-01-14 12:16:54 GMT 53.504654 -3.259408 20,350 306 320 1664
2019-01-14 12:16:51 GMT 53.503006 -3.255406 20,225 306 318 2176
2019-01-14 12:16:48 GMT 53.500114 -3.249207 20,175 306 318 2240
2019-01-14 12:16:45 GMT 53.498108 -3.243321 20,100 306 318 2304
2019-01-14 12:16:42 GMT 53.495785 -3.237170 19,975 306 318 2432
2019-01-14 12:16:39 GMT 53.493347 -3.231079 19,800 306 320 2624
2019-01-14 12:16:36 GMT 53.490429 -3.224891 19,700 306 320 2624
2019-01-14 12:16:33 GMT 53.487358 -3.216894 19,550 305 320 2368
2019-01-14 12:16:30 GMT 53.485634 -3.212774 19,550 305 320 2304
2019-01-14 12:16:27 GMT 53.482635 -3.206674 19,325 305 320 2176
2019-01-14 12:16:24 GMT 53.480621 -3.202515 19,200 306 320 2176
2019-01-14 12:16:21 GMT 53.476929 -3.192336 19,125 306 320 2112
2019-01-14 12:16:18 GMT 53.475113 -3.188378 18,925 306 320 1984
2019-01-14 12:16:15 GMT 53.472473 -3.182268 18,925 306 320 1984
2019-01-14 12:16:12 GMT 53.469498 -3.174186 18,825 306 318 1984
2019-01-14 12:16:09 GMT 53.466549 -3.168102 18,775 306 318 1984
2019-01-14 12:16:06 GMT 53.464733 -3.163982 18,625 306 318 2048
2019-01-14 12:16:03 GMT 53.461662 -3.155904 18,500 306 317 2176
2019-01-14 12:16:00 GMT 53.459614 -3.151945 18,425 306 317 2176
2019-01-14 12:15:57 GMT 53.457504 -3.145857 18,275 305 317 2304
2019-01-14 12:15:54 GMT 53.454723 -3.139828 18,175 305 317 2304
2019-01-14 12:15:51 GMT 53.451698 -3.131669 18,000 305 317 2304
2019-01-14 12:15:48 GMT 53.449463 -3.127711 17,925 305 317 2176
2019-01-14 12:15:45 GMT 53.447296 -3.121687 17,900 306 316 2176
2019-01-14 12:15:42 GMT 53.444298 -3.115674 17,800 306 316 2048
2019-01-14 12:15:39 GMT 53.442169 -3.109680 17,600 306 316 1920
2019-01-14 12:15:36 GMT 53.439735 -3.103638 17,550 306 315 1920
2019-01-14 12:15:33 GMT 53.436905 -3.097752 17,450 306 315 1984
2019-01-14 12:15:29 GMT 53.433289 -3.089669 17,275 306 313 2176
2019-01-14 12:15:26 GMT 53.430843 -3.083604 17,200 306 313 2240
2019-01-14 12:15:22 GMT 53.428051 -3.075687 16,925 306 311 2240
2019-01-14 12:15:19 GMT 53.425140 -3.069737 16,925 306 312 2304
2019-01-14 12:15:16 GMT 53.422558 -3.063893 16,825 306 312 2240
2019-01-14 12:15:13 GMT 53.420151 -3.057966 16,725 306 311 2304
2019-01-14 12:15:10 GMT 53.417484 -3.051937 16,600 306 311 2304
2019-01-14 12:15:07 GMT 53.415760 -3.047898 16,525 306 311 2304
2019-01-14 12:15:04 GMT 53.412457 -3.040062 16,375 306 311 2240
2019-01-14 12:15:01 GMT 53.410217 -3.034267 16,075 305 308 2560
2019-01-14 12:14:58 GMT 53.407288 -3.026263 16,150 306 310 2368
2019-01-14 12:14:55 GMT 53.405846 -3.024310 16,075 306 310 2432
2019-01-14 12:14:52 GMT 53.399933 -3.008719 15,800 305 308 2560
2019-01-14 12:14:49 GMT 53.399933 -3.008719 15,675 305 308 2624
2019-01-14 12:14:45 GMT 53.397263 -3.002877 14,300 305 308 2624
2019-01-14 12:14:42 GMT 53.394440 -2.996925 15,475 305 308 2880
2019-01-14 12:14:38 GMT 53.390808 -2.987026 15,250 306 309 3072
2019-01-14 12:14:35 GMT 53.389458 -2.985212 15,125 306 310 3072
2019-01-14 12:14:32 GMT 53.384171 -2.971488 14,750 306 310 2816
2019-01-14 12:14:29 GMT 53.384171 -2.971488 14,775 306 310 2816
2019-01-14 12:14:26 GMT 53.381218 -2.965662 14,675 306 310 2816
2019-01-14 12:14:23 GMT 53.379135 -2.959638 14,575 306 310 2816
2019-01-14 12:14:20 GMT 53.376656 -2.953787 14,500 306 310 2816
2019-01-14 12:14:17 GMT 53.373398 -2.945790 14,250 306 310 2624
2019-01-14 12:14:14 GMT 53.370186 -2.937873 14,075 306 310 2560
2019-01-14 12:14:11 GMT 53.369812 -2.938035 14,025 306 310 2560
2019-01-14 12:14:08 GMT 53.365860 -2.928092 13,950 306 310 2496
2019-01-14 12:14:04 GMT 53.363621 -2.922363 13,750 306 309 2560
2019-01-14 12:14:01 GMT 53.360085 -2.914366 13,575 306 309 2432
2019-01-14 12:13:58 GMT 53.358315 -2.910569 13,425 306 309 2432
2019-01-14 12:13:55 GMT 53.355381 -2.902653 13,325 306 309 2368
2019-01-14 12:13:52 GMT 53.352859 -2.896781 13,225 306 309 2432
2019-01-14 12:13:49 GMT 53.350449 -2.891020 13,100 306 307 2432
2019-01-14 12:13:46 GMT 53.348122 -2.887142 13,025 306 307 2432
2019-01-14 12:13:43 GMT 53.341789 -2.871713 12,775 306 306 2432
2019-01-14 12:13:39 GMT 53.341789 -2.871713 12,675 306 306 2432
2019-01-14 12:13:36 GMT 53.339767 -2.866019 12,600 306 306 2496
2019-01-14 12:13:33 GMT 53.333828 -2.852487 12,350 306 305 2560
2019-01-14 12:13:29 GMT 53.333828 -2.852487 12,250 306 304 2624
2019-01-14 12:13:26 GMT 53.332245 -2.848690 12,175 306 304 2624
2019-01-14 12:13:23 GMT 53.328568 -2.841016 11,975 306 303 2560
2019-01-14 12:13:20 GMT 53.326797 -2.837300 11,800 306 302 2496
2019-01-14 12:13:17 GMT 53.324707 -2.831569 11,675 306 276 896
2019-01-14 12:13:14 GMT 53.321228 -2.824036 11,650 306 302 2368
2019-01-14 12:13:11 GMT 53.318699 -2.818316 11,500 306 301 2240
2019-01-14 12:13:08 GMT 53.315346 -2.810723 11,350 307 299 1920
2019-01-14 12:13:02 GMT 53.312275 -2.803291 11,200 307 294 1408
2019-01-14 12:12:59 GMT 53.309967 -2.797825 11,175 307 294 1344
2019-01-14 12:12:56 GMT 53.307201 -2.792305 11,125 306 291 1216
2019-01-14 12:12:53 GMT 53.301910 -2.779776 11,025 306 284 960
2019-01-14 12:12:49 GMT 53.301910 -2.779776 10,975 306 282 960
2019-01-14 12:12:46 GMT 53.299797 -2.774533 10,900 305 272 832
2019-01-14 12:12:43 GMT 53.297470 -2.769182 10,925 306 277 832
2019-01-14 12:12:40 GMT 53.295235 -2.763869 10,825 305 272 832
2019-01-14 12:12:37 GMT 53.292892 -2.758824 10,825 305 267 768
2019-01-14 12:12:34 GMT 53.290768 -2.753610 10,750 303 258 768
2019-01-14 12:12:31 GMT 53.288773 -2.748701 10,725 303 258 768
2019-01-14 12:12:28 GMT 53.285248 -2.738421 10,700 301 255 832
2019-01-14 12:12:25 GMT 53.285248 -2.738421 10,675 298 253 832
2019-01-14 12:12:21 GMT 53.283459 -2.733334 10,625 294 250 768
2019-01-14 12:12:18 GMT 53.281921 -2.726063 10,575 289 246 1472
2019-01-14 12:12:15 GMT 53.280853 -2.720529 10,475 286 244 2240
2019-01-14 12:12:11 GMT 53.279362 -2.711442 10,225 281 244 3136
2019-01-14 12:12:08 GMT 53.279083 -2.707726 10,050 279 244 3200
2019-01-14 12:12:05 GMT 53.278664 -2.704091 9,950 276 246 3136
2019-01-14 12:12:02 GMT 53.278244 -2.690709 9,775 271 248 3008
2019-01-14 12:11:59 GMT 53.278244 -2.690709 9,600 269 249 3008
2019-01-14 12:11:56 GMT 53.278431 -2.684865 9,525 265 250 3008
2019-01-14 12:11:53 GMT 53.278839 -2.679016 9,450 264 251 3008
2019-01-14 12:11:50 GMT 53.279549 -2.673232 9,175 253 257 2880
2019-01-14 12:11:47 GMT 53.280258 -2.667637 9,050 253 257 2880
2019-01-14 12:11:44 GMT 53.281403 -2.661909 8,950 251 258 2816
2019-01-14 12:11:41 GMT 53.282806 -2.654410 8,775 251 257 2880
2019-01-14 12:11:38 GMT 53.283787 -2.650694 8,700 250 256 2944
2019-01-14 12:11:35 GMT 53.285202 -2.645115 8,550 250 256 3136
2019-01-14 12:11:32 GMT 53.286251 -2.639546 8,250 251 256 3328
2019-01-14 12:11:29 GMT 53.287880 -2.632033 8,100 251 256 3200
2019-01-14 12:11:25 GMT 53.288864 -2.626517 7,925 251 256 3264
2019-01-14 12:11:22 GMT 53.290115 -2.620886 7,700 252 255 3392
2019-01-14 12:11:19 GMT 53.291557 -2.613373 7,575 252 256 3392
2019-01-14 12:11:16 GMT 53.292488 -2.609657 7,375 252 255 3328
2019-01-14 12:11:13 GMT 53.293625 -2.603917 7,250 253 255 3264
2019-01-14 12:11:09 GMT 53.295090 -2.596383 7,025 253 255 3008
2019-01-14 12:11:06 GMT 53.297287 -2.585161 6,500 254 254 2816
2019-01-14 12:11:02 GMT 53.297287 -2.585161 6,550 254 252 2752
2019-01-14 12:10:59 GMT 53.298340 -2.577706 6,550 254 252 2752
2019-01-14 12:10:56 GMT 53.299667 -2.570251 6,375 254 251 3136
2019-01-14 12:10:52 GMT 53.300915 -2.564581 6,250 254 250 3264
2019-01-14 12:10:49 GMT 53.301662 -2.560865 5,925 254 250 3008
2019-01-14 12:10:46 GMT 53.302822 -2.553433 5,800 253 251 2944
2019-01-14 12:10:43 GMT 53.304081 -2.546001 5,700 253 250 2816
2019-01-14 12:10:39 GMT 53.305012 -2.542285 5,575 253 249 2880
2019-01-14 12:10:35 GMT 53.306671 -2.533212 5,350 253 249 3008
2019-01-14 12:10:31 GMT 53.308502 -2.524109 5,025 252 248 3136
2019-01-14 12:10:28 GMT 53.310040 -2.516677 4,975 253 246 2816
2019-01-14 12:10:25 GMT 53.310040 -2.516677 4,850 253 246 2816
2019-01-14 12:10:22 GMT 53.311203 -2.509487 4,775 253 246 2624
2019-01-14 12:10:19 GMT 53.312210 -2.504098 4,275 255 243 2240
2019-01-14 12:10:15 GMT 53.313583 -2.496722 4,350 253 231 704
2019-01-14 12:10:10 GMT 53.314976 -2.487919 4,225 253 237 832
2019-01-14 12:10:07 GMT 53.315964 -2.482596 4,175 252 235 640
2019-01-14 12:10:04 GMT 53.316792 -2.477417 4,150 252 234 768
2019-01-14 12:10:01 GMT 53.317795 -2.472238 4,125 253 231 704
2019-01-14 12:09:58 GMT 53.318527 -2.468863 4,050 263 229 448
2019-01-14 12:09:54 GMT 53.319817 -2.460130 4,025 261 230 448
2019-01-14 12:09:51 GMT 53.320141 -2.456656 4,000 264 229 640
2019-01-14 12:09:48 GMT 53.320419 -2.449628 3,975 269 228 640
2019-01-14 12:09:44 GMT 53.320374 -2.442438 3,925 272 230 512
2019-01-14 12:09:41 GMT 53.320236 -2.435330 3,875 273 232 448
2019-01-14 12:09:38 GMT 53.320141 -2.431775 3,875 273 233 448
2019-01-14 12:09:35 GMT 53.319992 -2.426409 3,850 273 231 896
2019-01-14 12:09:31 GMT 53.319809 -2.419189 3,775 273 228 1536
2019-01-14 12:09:27 GMT 53.319626 -2.412205 3,700 273 223 1280
2019-01-14 12:09:23 GMT 53.319351 -2.400513 3,575 273 216 1344
2019-01-14 12:09:20 GMT 53.319351 -2.400513 3,475 272 211 1792
2019-01-14 12:09:17 GMT 53.319210 -2.393969 3,400 272 208 2560
2019-01-14 12:09:13 GMT 53.319122 -2.389212 3,250 272 207 2880
2019-01-14 12:09:10 GMT 53.319023 -2.384276 3,075 272 206 2816
2019-01-14 12:09:07 GMT 53.318893 -2.379560 2,975 274 205 2816
2019-01-14 12:09:02 GMT 53.318573 -2.370143 2,675 276 202 2752
2019-01-14 12:08:59 GMT 53.318436 -2.366926 2,600 276 202 2752
2019-01-14 12:08:56 GMT 53.318188 -2.362303 2,475 274 202 2560
2019-01-14 12:08:53 GMT 53.318138 -2.359152 2,275 248 203 1088
2019-01-14 12:08:49 GMT 53.318790 -2.351317 2,150 253 204 1536
2019-01-14 12:08:46 GMT 53.319397 -2.346874 2,075 248 203 1088
2019-01-14 12:08:43 GMT 53.320328 -2.343965 2,075 248 203 1088
2019-01-14 12:08:40 GMT 53.323353 -2.336291 1,800 233 198 1216
2019-01-14 12:08:37 GMT 53.325729 -2.331525 1,850 231 193 1152
2019-01-14 12:08:34 GMT 53.325729 -2.331525 1,825 231 190 1024
2019-01-14 12:08:30 GMT 53.327778 -2.327082 1,725 230 183 1088
2019-01-14 12:08:26 GMT 53.330105 -2.322639 1,675 230 178 1152
2019-01-14 12:08:23 GMT 53.332851 -2.316419 1,575 230 175 1280
2019-01-14 12:08:17 GMT 53.334503 -2.313485 1,475 230 168 1664
2019-01-14 12:08:12 GMT 53.337414 -2.308502 1,300 229 165 2176
2019-01-14 12:08:06 GMT 53.342468 -2.297869 700 232 163 2304
2019-01-14 12:08:01 GMT 53.342468 -2.297869 925 231 162 2176
2019-01-14 12:07:55 GMT 53.345215 -2.292062 575 233 160 3072
2019-01-14 12:07:52 GMT 53.346817 -2.289195 475 233 160 3072
2019-01-14 12:07:47 GMT 53.349060 -2.284215 225 232 163 2240
2019-01-14 12:07:43 GMT 53.351517 -2.279259 75 232 162 1472
2019-01-14 12:07:37 GMT 53.353462 -2.275483 0 230 155
2019-01-14 12:07:31 GMT 53.355919 -2.270414 0 230 135
2019-01-14 12:07:27 GMT 53.357517 -2.266774 0 230 115
2019-01-14 12:07:22 GMT 53.359047 -2.263709 0 230 92
2019-01-14 12:07:15 GMT 53.360493 -2.260861 0 230 65
2019-01-14 12:07:11 GMT 53.361259 -2.259240 0 230 42
2019-01-14 12:07:02 GMT 53.362003 -2.257852 0 227 14
2019-01-14 12:06:52 GMT 53.362411 -2.257529 0 168 8
2019-01-14 12:06:45 GMT 53.362598 -2.257730 0 135 9
2019-01-14 12:06:41 GMT 53.362690 -2.257872 0 129 9
2019-01-14 12:06:29 GMT 53.362900 -2.258579 0 98 10
2019-01-14 12:06:24 GMT 53.362896 -2.258926 0 78 9
2019-01-14 12:06:12 GMT 53.362736 -2.259672 0 67 8
2019-01-14 12:05:58 GMT 53.362679 -2.260202 0 50 3
2019-01-14 12:05:52 GMT 53.362690 -2.260296 0 50 2
2019-01-14 12:05:35 GMT 53.362690 -2.260417 0 50 0
2019-01-14 12:05:27 GMT 53.362701 -2.260496 0 50 2
2019-01-14 12:05:21 GMT 53.362701 -2.260558 0 50 2
2019-01-14 12:05:10 GMT 53.362713 -2.260751 0 50 5
2019-01-14 12:05:01 GMT 53.362656 -2.261063 0 50 5
2019-01-14 12:04:30 GMT 53.362400 -2.261608 0 50 2
2019-01-14 12:04:21 GMT 53.362377 -2.261649 0 50 0
2019-01-14 12:04:10 GMT 53.362358 -2.261693 0 50 0
2019-01-14 12:03:59 GMT 53.362293 -2.261810 0 50 5
2019-01-14 12:03:45 GMT 53.362061 -2.262281 0 50 6
2019-01-14 12:03:40 GMT 53.361992 -2.262396 0 50 4
2019-01-14 12:02:16 GMT 53.361923 -2.262477 0 50 0
2019-01-14 12:01:45 GMT 53.361923 -2.262477 0 50 0
2019-01-14 12:01:36 GMT 53.361912 -2.262497 0 50 3
2019-01-14 12:01:16 GMT 53.361568 -2.262870 0 50 7
2019-01-14 12:01:05 GMT 53.361294 -2.263497 0 50 12
2019-01-14 12:00:55 GMT 53.360928 -2.264243 0 50 13
2019-01-14 12:00:44 GMT 53.360527 -2.265047 0 50 15
2019-01-14 12:00:35 GMT 53.360115 -2.265930 0 50 15
2019-01-14 12:00:24 GMT 53.359699 -2.266839 0 47 13
2019-01-14 12:00:14 GMT 53.359318 -2.267606 0 56 13
2019-01-14 12:00:02 GMT 53.358944 -2.268576 0 50 13
2019-01-14 11:59:52 GMT 53.358593 -2.269303 0 50 13
2019-01-14 11:59:43 GMT 53.358315 -2.269929 0 59 14
2019-01-14 11:59:33 GMT 53.357998 -2.270874 0 56 13
2019-01-14 11:59:22 GMT 53.357605 -2.271767 0 50 15
2019-01-14 11:59:12 GMT 53.357151 -2.272655 0 50 15
2019-01-14 11:59:02 GMT 53.356754 -2.273483 0 50 13
2019-01-14 11:58:52 GMT 53.356396 -2.274210 0 53 12
2019-01-14 11:58:41 GMT 53.356197 -2.274917 0 95 11
2019-01-14 11:58:31 GMT 53.356499 -2.275661 0 140 14

Making use of Plane Finder data

You are free to use the raw flight data, aircraft information and images provided in this report for your own purposes provided the data is correctly attributed to Plane Finder. We ask that you please credit Plane Finder and link to planefinder.net in close proximity to the content.

Optionally one of the following logos (no smaller then 150x24px) can be used and must link to planefinder.net

Embedding the Plane Finder map

You are welcome to embed the Plane Finder playback map on your website to offer visitors a more interactive experience. We suggest using the following HTML code:

<iframe src="//planefinder.net/data/report/FI441-TF-ISK-7700-squawk-2019-01-14/map" width="800" height="600" seamless="seamless"></iframe>

Where our data comes from

Plane Finder has a global network of data feeds and antenna radars that receive data broadcast directly from aircraft. The primary technologies used are ADS-B and MLAT. We also show feeds from the FAA and a FLARM glider feed.

Click here to find out more about the Plane Finder network.

How we collect our data